<?xml version="1.0" encoding="UTF-8" standalone="no" ?><gpx xmlns="http://www.topografix.com/GPX/1/1" xmlns:gpxx="http://www.garmin.com/xmlschemas/GpxExtensions/v3" xmlns:wptx1="http://www.garmin.com/xmlschemas/WaypointExtension/v1" xmlns:gpxtpx="http://www.garmin.com/xmlschemas/TrackPointExtension/v1" creator="GuideVTT.com" version="1.1" xmlns:xsi="http://www.w3.org/2001/XMLSchema-instance" xsi:schemaLocation="http://www.topografix.com/GPX/1/1 http://www.topografix.com/GPX/1/1/gpx.xsd http://www.garmin.com/xmlschemas/GpxExtensions/v3 http://www8.garmin.com/xmlschemas/GpxExtensionsv3.xsd http://www.garmin.com/xmlschemas/WaypointExtension/v1 http://www8.garmin.com/xmlschemas/WaypointExtensionv1.xsd http://www.garmin.com/xmlschemas/TrackPointExtension/v1 http://www.garmin.com/xmlschemas/TrackPointExtensionv1.xsd">
<metadata><link href="http://www.garmin.com"><text>Garmin International</text></link><time>2013-06-22T15:13:50Z</time></metadata>
<trk><name>niremont.gpx</name><extensions><gpxx:TrackExtension><gpxx:DisplayColor>Cyan</gpxx:DisplayColor></gpxx:TrackExtension></extensions><trkseg>
<trkpt lat="46.610128811773" lon="7.00131387805977"><ele></ele><time>2014-4-28T15:23:48Z</time></trkpt>
<trkpt lat="46.6102441299248" lon="7.00068939395601"><ele></ele><time>2014-4-28T15:23:51Z</time></trkpt>
<trkpt lat="46.6104227313752" lon="6.99972214366509"><ele></ele><time>2014-4-28T15:23:54Z</time></trkpt>
<trkpt lat="46.6101403437335" lon="6.99954388004739"><ele></ele><time>2014-4-28T15:23:57Z</time></trkpt>
<trkpt lat="46.6097366591862" lon="6.99928904043755"><ele></ele><time>2014-4-28T15:24:0Z</time></trkpt>
<trkpt lat="46.609265367497" lon="6.99913343668036"><ele></ele><time>2014-4-28T15:24:3Z</time></trkpt>
<trkpt lat="46.6089104746429" lon="6.99932611359278"><ele></ele><time>2014-4-28T15:24:6Z</time></trkpt>
<trkpt lat="46.6085969714502" lon="6.99959131422731"><ele></ele><time>2014-4-28T15:24:9Z</time></trkpt>
<trkpt lat="46.6084687657224" lon="6.99940728881985"><ele></ele><time>2014-4-28T15:24:12Z</time></trkpt>
<trkpt lat="46.6081134788896" lon="6.998826523855"><ele></ele><time>2014-4-28T15:24:15Z</time></trkpt>
<trkpt lat="46.6077452144803" lon="6.99838929718881"><ele></ele><time>2014-4-28T15:24:18Z</time></trkpt>
<trkpt lat="46.6075873478782" lon="6.99827969833993"><ele></ele><time>2014-4-28T15:24:21Z</time></trkpt>
<trkpt lat="46.6072562895691" lon="6.99804988497527"><ele></ele><time>2014-4-28T15:24:24Z</time></trkpt>
<trkpt lat="46.6069539016736" lon="6.99762530349416"><ele></ele><time>2014-4-28T15:24:27Z</time></trkpt>
<trkpt lat="46.6068002450518" lon="6.99720944590146"><ele></ele><time>2014-4-28T15:24:30Z</time></trkpt>
<trkpt lat="46.6067372145695" lon="6.99673457028711"><ele></ele><time>2014-4-28T15:24:33Z</time></trkpt>
<trkpt lat="46.6066799735795" lon="6.99630324416967"><ele></ele><time>2014-4-28T15:24:36Z</time></trkpt>
<trkpt lat="46.6065022580709" lon="6.99599627818049"><ele></ele><time>2014-4-28T15:24:39Z</time></trkpt>
<trkpt lat="46.6061450823356" lon="6.99577618638427"><ele></ele><time>2014-4-28T15:24:42Z</time></trkpt>
<trkpt lat="46.6057783226506" lon="6.99561311059666"><ele></ele><time>2014-4-28T15:24:45Z</time></trkpt>
<trkpt lat="46.6055670826941" lon="6.99534426554171"><ele></ele><time>2014-4-28T15:24:48Z</time></trkpt>
<trkpt lat="46.6054000011098" lon="6.99525074459971"><ele></ele><time>2014-4-28T15:24:51Z</time></trkpt>
<trkpt lat="46.6053155979318" lon="6.99550820123438"><ele></ele><time>2014-4-28T15:24:54Z</time></trkpt>
<trkpt lat="46.6053622677142" lon="6.99563537905357"><ele></ele><time>2014-4-28T15:24:57Z</time></trkpt>
<trkpt lat="46.6054646987879" lon="6.99591448645631"><ele></ele><time>2014-4-28T15:25:0Z</time></trkpt>
<trkpt lat="46.6054200917379" lon="6.99621377578361"><ele></ele><time>2014-4-28T15:25:3Z</time></trkpt>
<trkpt lat="46.6050990878519" lon="6.99689017124527"><ele></ele><time>2014-4-28T15:25:6Z</time></trkpt>
<trkpt lat="46.6047898724285" lon="6.99723432406192"><ele></ele><time>2014-4-28T15:25:9Z</time></trkpt>
<trkpt lat="46.6042563846214" lon="6.99749969236847"><ele></ele><time>2014-4-28T15:25:12Z</time></trkpt>
<trkpt lat="46.6040035215746" lon="6.99804739250321"><ele></ele><time>2014-4-28T15:25:15Z</time></trkpt>
<trkpt lat="46.6038921811375" lon="6.99799610470759"><ele></ele><time>2014-4-28T15:25:18Z</time></trkpt>
<trkpt lat="46.6038546562486" lon="6.99759311853677"><ele></ele><time>2014-4-28T15:25:21Z</time></trkpt>
<trkpt lat="46.6036671759452" lon="6.99729573277696"><ele></ele><time>2014-4-28T15:25:24Z</time></trkpt>
<trkpt lat="46.603717801219" lon="6.99686354956352"><ele></ele><time>2014-4-28T15:25:27Z</time></trkpt>
<trkpt lat="46.6037166228143" lon="6.9965598935202"><ele></ele><time>2014-4-28T15:25:30Z</time></trkpt>
<trkpt lat="46.6033147225396" lon="6.99576607812318"><ele></ele><time>2014-4-28T15:25:33Z</time></trkpt>
<trkpt lat="46.6030540220724" lon="6.99560759786082"><ele></ele><time>2014-4-28T15:25:36Z</time></trkpt>
<trkpt lat="46.6025287556996" lon="6.99540243463232"><ele></ele><time>2014-4-28T15:25:39Z</time></trkpt>
<trkpt lat="46.6020354903448" lon="6.99520976435554"><ele></ele><time>2014-4-28T15:25:42Z</time></trkpt>
<trkpt lat="46.6018640540638" lon="6.99506528052863"><ele></ele><time>2014-4-28T15:25:45Z</time></trkpt>
<trkpt lat="46.6017272015775" lon="6.99462192333307"><ele></ele><time>2014-4-28T15:25:48Z</time></trkpt>
<trkpt lat="46.6018627685171" lon="6.99415884096108"><ele></ele><time>2014-4-28T15:25:51Z</time></trkpt>
<trkpt lat="46.6018206789118" lon="6.99367777096181"><ele></ele><time>2014-4-28T15:25:54Z</time></trkpt>
<trkpt lat="46.6019020205583" lon="6.99305953226889"><ele></ele><time>2014-4-28T15:25:57Z</time></trkpt>
<trkpt lat="46.6019001739398" lon="6.99258785422129"><ele></ele><time>2014-4-28T15:26:0Z</time></trkpt>
<trkpt lat="46.6017611940413" lon="6.99217566121476"><ele></ele><time>2014-4-28T15:26:3Z</time></trkpt>
<trkpt lat="46.6015691532304" lon="6.99190492898297"><ele></ele><time>2014-4-28T15:26:6Z</time></trkpt>
<trkpt lat="46.600575638915" lon="6.99165493014901"><ele></ele><time>2014-4-28T15:26:9Z</time></trkpt>
<trkpt lat="46.6004409187074" lon="6.99147612063105"><ele></ele><time>2014-4-28T15:26:12Z</time></trkpt>
<trkpt lat="46.6000029986071" lon="6.98943066585972"><ele></ele><time>2014-4-28T15:26:15Z</time></trkpt>
<trkpt lat="46.5997240213424" lon="6.98920444739546"><ele></ele><time>2014-4-28T15:26:18Z</time></trkpt>
<trkpt lat="46.5995147438004" lon="6.98881231001144"><ele></ele><time>2014-4-28T15:26:21Z</time></trkpt>
<trkpt lat="46.5992808599576" lon="6.98812862881922"><ele></ele><time>2014-4-28T15:26:24Z</time></trkpt>
<trkpt lat="46.599201398849" lon="6.98752147449125"><ele></ele><time>2014-4-28T15:26:27Z</time></trkpt>
<trkpt lat="46.599138861783" lon="6.98726753130911"><ele></ele><time>2014-4-28T15:26:30Z</time></trkpt>
<trkpt lat="46.5988424942068" lon="6.98688100086206"><ele></ele><time>2014-4-28T15:26:33Z</time></trkpt>
<trkpt lat="46.5987708969445" lon="6.98657039125719"><ele></ele><time>2014-4-28T15:26:36Z</time></trkpt>
<trkpt lat="46.5987012627368" lon="6.98590966779194"><ele></ele><time>2014-4-28T15:26:39Z</time></trkpt>
<trkpt lat="46.5985222129116" lon="6.98553675581308"><ele></ele><time>2014-4-28T15:26:42Z</time></trkpt>
<trkpt lat="46.5983511126941" lon="6.9854798396383"><ele></ele><time>2014-4-28T15:26:45Z</time></trkpt>
<trkpt lat="46.5982013077036" lon="6.98572421395753"><ele></ele><time>2014-4-28T15:26:48Z</time></trkpt>
<trkpt lat="46.5979726082784" lon="6.98634853469379"><ele></ele><time>2014-4-28T15:26:51Z</time></trkpt>
<trkpt lat="46.597561831852" lon="6.98668261493038"><ele></ele><time>2014-4-28T15:26:54Z</time></trkpt>
<trkpt lat="46.59737589259" lon="6.98710719668542"><ele></ele><time>2014-4-28T15:26:57Z</time></trkpt>
<trkpt lat="46.5969946807977" lon="6.98744528831226"><ele></ele><time>2014-4-28T15:27:0Z</time></trkpt>
<trkpt lat="46.5967696043388" lon="6.98848532514368"><ele></ele><time>2014-4-28T15:27:3Z</time></trkpt>
<trkpt lat="46.5965524342506" lon="6.98948877318452"><ele></ele><time>2014-4-28T15:27:6Z</time></trkpt>
<trkpt lat="46.5962447297299" lon="6.99047350538707"><ele></ele><time>2014-4-28T15:27:9Z</time></trkpt>
<trkpt lat="46.5959620665292" lon="6.99101555767667"><ele></ele><time>2014-4-28T15:27:12Z</time></trkpt>
<trkpt lat="46.5952472935352" lon="6.99215190376178"><ele></ele><time>2014-4-28T15:27:15Z</time></trkpt>
<trkpt lat="46.5948092465367" lon="6.99293701712178"><ele></ele><time>2014-4-28T15:27:18Z</time></trkpt>
<trkpt lat="46.5945530547714" lon="6.99339616743849"><ele></ele><time>2014-4-28T15:27:21Z</time></trkpt>
<trkpt lat="46.5943356076326" lon="6.99348061353768"><ele></ele><time>2014-4-28T15:27:24Z</time></trkpt>
<trkpt lat="46.5941934468779" lon="6.99311227050071"><ele></ele><time>2014-4-28T15:27:27Z</time></trkpt>
<trkpt lat="46.5941902477362" lon="6.99229545636968"><ele></ele><time>2014-4-28T15:27:30Z</time></trkpt>
<trkpt lat="46.5942623208861" lon="6.9910258503997"><ele></ele><time>2014-4-28T15:27:33Z</time></trkpt>
<trkpt lat="46.5944192566953" lon="6.9900375401522"><ele></ele><time>2014-4-28T15:27:36Z</time></trkpt>
<trkpt lat="46.5943658940287" lon="6.98926191952335"><ele></ele><time>2014-4-28T15:27:39Z</time></trkpt>
<trkpt lat="46.5943624173635" lon="6.98838190560758"><ele></ele><time>2014-4-28T15:27:42Z</time></trkpt>
<trkpt lat="46.5944868239528" lon="6.98764668167346"><ele></ele><time>2014-4-28T15:27:45Z</time></trkpt>
<trkpt lat="46.5946257667283" lon="6.98719820499092"><ele></ele><time>2014-4-28T15:27:48Z</time></trkpt>
<trkpt lat="46.5946806425918" lon="6.98667263873567"><ele></ele><time>2014-4-28T15:27:51Z</time></trkpt>
<trkpt lat="46.5947425601467" lon="6.98622642023372"><ele></ele><time>2014-4-28T15:27:54Z</time></trkpt>
<trkpt lat="46.5950838985434" lon="6.98392196626674"><ele></ele><time>2014-4-28T15:27:57Z</time></trkpt>
<trkpt lat="46.5952035914518" lon="6.98243444999146"><ele></ele><time>2014-4-28T15:28:0Z</time></trkpt>
<trkpt lat="46.5951331170816" lon="6.98143598694724"><ele></ele><time>2014-4-28T15:28:3Z</time></trkpt>
<trkpt lat="46.5949530593256" lon="6.98034199040967"><ele></ele><time>2014-4-28T15:28:6Z</time></trkpt>
<trkpt lat="46.5947719099426" lon="6.97984104385696"><ele></ele><time>2014-4-28T15:28:9Z</time></trkpt>
<trkpt lat="46.5945170266857" lon="6.97962273074231"><ele></ele><time>2014-4-28T15:28:12Z</time></trkpt>
<trkpt lat="46.5937064027872" lon="6.97934366785814"><ele></ele><time>2014-4-28T15:28:15Z</time></trkpt>
<trkpt lat="46.5933795476162" lon="6.97914638200727"><ele></ele><time>2014-4-28T15:28:18Z</time></trkpt>
<trkpt lat="46.5931036323483" lon="6.97845855770733"><ele></ele><time>2014-4-28T15:28:21Z</time></trkpt>
<trkpt lat="46.5928144716421" lon="6.97809764670252"><ele></ele><time>2014-4-28T15:28:24Z</time></trkpt>
<trkpt lat="46.5921454159711" lon="6.97726263870906"><ele></ele><time>2014-4-28T15:28:27Z</time></trkpt>
<trkpt lat="46.5917143533348" lon="6.97692183349715"><ele></ele><time>2014-4-28T15:28:30Z</time></trkpt>
<trkpt lat="46.59142474582" lon="6.97692430509656"><ele></ele><time>2014-4-28T15:28:33Z</time></trkpt>
<trkpt lat="46.5910724112139" lon="6.97785050682489"><ele></ele><time>2014-4-28T15:28:36Z</time></trkpt>
<trkpt lat="46.5909090479589" lon="6.97854429545359"><ele></ele><time>2014-4-28T15:28:39Z</time></trkpt>
<trkpt lat="46.5909471549182" lon="6.97976825295523"><ele></ele><time>2014-4-28T15:28:42Z</time></trkpt>
<trkpt lat="46.5917586993091" lon="6.98203127569966"><ele></ele><time>2014-4-28T15:28:45Z</time></trkpt>
<trkpt lat="46.5918799328544" lon="6.98271320139443"><ele></ele><time>2014-4-28T15:28:48Z</time></trkpt>
<trkpt lat="46.5919721156646" lon="6.9836968345454"><ele></ele><time>2014-4-28T15:28:51Z</time></trkpt>
<trkpt lat="46.5919762141584" lon="6.98472367181583"><ele></ele><time>2014-4-28T15:28:54Z</time></trkpt>
<trkpt lat="46.5918305873984" lon="6.98556506978726"><ele></ele><time>2014-4-28T15:28:57Z</time></trkpt>
<trkpt lat="46.5917952372654" lon="6.98690832088873"><ele></ele><time>2014-4-28T15:29:0Z</time></trkpt>
<trkpt lat="46.5916974320501" lon="6.98872938385347"><ele></ele><time>2014-4-28T15:29:3Z</time></trkpt>
<trkpt lat="46.5915823684538" lon="6.98959999043209"><ele></ele><time>2014-4-28T15:29:6Z</time></trkpt>
<trkpt lat="46.5913271651279" lon="6.99013764950134"><ele></ele><time>2014-4-28T15:29:9Z</time></trkpt>
<trkpt lat="46.5909711272792" lon="6.99023682316376"><ele></ele><time>2014-4-28T15:29:12Z</time></trkpt>
<trkpt lat="46.5906729021587" lon="6.99004527276572"><ele></ele><time>2014-4-28T15:29:15Z</time></trkpt>
<trkpt lat="46.590611037978" lon="6.98959102367738"><ele></ele><time>2014-4-28T15:29:18Z</time></trkpt>
<trkpt lat="46.5906088997957" lon="6.98904924421288"><ele></ele><time>2014-4-28T15:29:21Z</time></trkpt>
<trkpt lat="46.5906064611838" lon="6.988432136826"><ele></ele><time>2014-4-28T15:29:24Z</time></trkpt>
<trkpt lat="46.5903455736369" lon="6.98820860459379"><ele></ele><time>2014-4-28T15:29:27Z</time></trkpt>
<trkpt lat="46.589987706693" lon="6.9879019928421"><ele></ele><time>2014-4-28T15:29:30Z</time></trkpt>
<trkpt lat="46.5900330385109" lon="6.98759595139252"><ele></ele><time>2014-4-28T15:29:33Z</time></trkpt>
<trkpt lat="46.5901017615221" lon="6.98713189108966"><ele></ele><time>2014-4-28T15:29:36Z</time></trkpt>
<trkpt lat="46.590136326648" lon="6.98668162028773"><ele></ele><time>2014-4-28T15:29:39Z</time></trkpt>
<trkpt lat="46.5900984602209" lon="6.98630022500769"><ele></ele><time>2014-4-28T15:29:42Z</time></trkpt>
<trkpt lat="46.5900073425915" lon="6.98601505263907"><ele></ele><time>2014-4-28T15:29:45Z</time></trkpt>
<trkpt lat="46.5898585474567" lon="6.9857059632241"><ele></ele><time>2014-4-28T15:29:48Z</time></trkpt>
<trkpt lat="46.5896479874733" lon="6.98546257030324"><ele></ele><time>2014-4-28T15:29:51Z</time></trkpt>
<trkpt lat="46.5893576101697" lon="6.98522878638035"><ele></ele><time>2014-4-28T15:29:54Z</time></trkpt>
<trkpt lat="46.5886663050633" lon="6.98476559820212"><ele></ele><time>2014-4-28T15:29:57Z</time></trkpt>
<trkpt lat="46.5881721106103" lon="6.98434028953769"><ele></ele><time>2014-4-28T15:30:0Z</time></trkpt>
<trkpt lat="46.5875935973726" lon="6.98363125023806"><ele></ele><time>2014-4-28T15:30:3Z</time></trkpt>
<trkpt lat="46.5871027141301" lon="6.98302961602861"><ele></ele><time>2014-4-28T15:30:6Z</time></trkpt>
<trkpt lat="46.5865167345453" lon="6.98231145593221"><ele></ele><time>2014-4-28T15:30:9Z</time></trkpt>
<trkpt lat="46.5861470642622" lon="6.98185841365433"><ele></ele><time>2014-4-28T15:30:12Z</time></trkpt>
<trkpt lat="46.5860169347631" lon="6.98140644558974"><ele></ele><time>2014-4-28T15:30:15Z</time></trkpt>
<trkpt lat="46.5858146707585" lon="6.98110094901564"><ele></ele><time>2014-4-28T15:30:18Z</time></trkpt>
<trkpt lat="46.58552171278" lon="6.98057899377683"><ele></ele><time>2014-4-28T15:30:21Z</time></trkpt>
<trkpt lat="46.5851661386586" lon="6.98003162349108"><ele></ele><time>2014-4-28T15:30:24Z</time></trkpt>
<trkpt lat="46.5850765689681" lon="6.97966576303772"><ele></ele><time>2014-4-28T15:30:27Z</time></trkpt>
<trkpt lat="46.5849939401271" lon="6.97932822297255"><ele></ele><time>2014-4-28T15:30:30Z</time></trkpt>
<trkpt lat="46.5848623864267" lon="6.97905627118739"><ele></ele><time>2014-4-28T15:30:33Z</time></trkpt>
<trkpt lat="46.5847645778192" lon="6.97866921722787"><ele></ele><time>2014-4-28T15:30:36Z</time></trkpt>
<trkpt lat="46.5846797047668" lon="6.97830688367271"><ele></ele><time>2014-4-28T15:30:39Z</time></trkpt>
<trkpt lat="46.5845603607833" lon="6.97788277871751"><ele></ele><time>2014-4-28T15:30:42Z</time></trkpt>
<trkpt lat="46.584426461602" lon="6.97756119466596"><ele></ele><time>2014-4-28T15:30:45Z</time></trkpt>
<trkpt lat="46.5842597656349" lon="6.97752886195165"><ele></ele><time>2014-4-28T15:30:48Z</time></trkpt>
<trkpt lat="46.583211754965" lon="6.9765974057422"><ele></ele><time>2014-4-28T15:30:51Z</time></trkpt>
<trkpt lat="46.5819086015061" lon="6.97491065298876"><ele></ele><time>2014-4-28T15:30:54Z</time></trkpt>
<trkpt lat="46.5799032942755" lon="6.97323002035585"><ele></ele><time>2014-4-28T15:30:57Z</time></trkpt>
<trkpt lat="46.5784651282208" lon="6.97213585423636"><ele></ele><time>2014-4-28T15:31:0Z</time></trkpt>
<trkpt lat="46.5775241051649" lon="6.97047591508747"><ele></ele><time>2014-4-28T15:31:3Z</time></trkpt>
<trkpt lat="46.5765191459411" lon="6.96784357322494"><ele></ele><time>2014-4-28T15:31:6Z</time></trkpt>
<trkpt lat="46.575892544375" lon="6.96692814900038"><ele></ele><time>2014-4-28T15:31:9Z</time></trkpt>
<trkpt lat="46.5746904066734" lon="6.9658613895121"><ele></ele><time>2014-4-28T15:31:12Z</time></trkpt>
<trkpt lat="46.5735498134084" lon="6.96519376167912"><ele></ele><time>2014-4-28T15:31:15Z</time></trkpt>
<trkpt lat="46.5729629522047" lon="6.96519889558684"><ele></ele><time>2014-4-28T15:31:18Z</time></trkpt>
<trkpt lat="46.5728148189613" lon="6.96414037924812"><ele></ele><time>2014-4-28T15:31:21Z</time></trkpt>
<trkpt lat="46.5725154064203" lon="6.96414300433861"><ele></ele><time>2014-4-28T15:31:24Z</time></trkpt>
<trkpt lat="46.5725164284843" lon="6.9643882173006"><ele></ele><time>2014-4-28T15:31:27Z</time></trkpt>
<trkpt lat="46.572332160258" lon="6.96496081010788"><ele></ele><time>2014-4-28T15:31:30Z</time></trkpt>
<trkpt lat="46.5721971795919" lon="6.96521389065401"><ele></ele><time>2014-4-28T15:31:33Z</time></trkpt>
<trkpt lat="46.5718710499486" lon="6.96543505215928"><ele></ele><time>2014-4-28T15:31:36Z</time></trkpt>
<trkpt lat="46.5713857634011" lon="6.96566181516763"><ele></ele><time>2014-4-28T15:31:39Z</time></trkpt>
<trkpt lat="46.5711216085229" lon="6.96584494062484"><ele></ele><time>2014-4-28T15:31:42Z</time></trkpt>
<trkpt lat="46.5705632257582" lon="6.96659290566082"><ele></ele><time>2014-4-28T15:31:45Z</time></trkpt>
<trkpt lat="46.5702555771615" lon="6.96708258162915"><ele></ele><time>2014-4-28T15:31:48Z</time></trkpt>
<trkpt lat="46.5700649767572" lon="6.96718499273464"><ele></ele><time>2014-4-28T15:31:51Z</time></trkpt>
<trkpt lat="46.569895970751" lon="6.96718646490867"><ele></ele><time>2014-4-28T15:31:54Z</time></trkpt>
<trkpt lat="46.5696806716152" lon="6.96691416117888"><ele></ele><time>2014-4-28T15:31:57Z</time></trkpt>
<trkpt lat="46.569545376827" lon="6.96674304621033"><ele></ele><time>2014-4-28T15:32:0Z</time></trkpt>
<trkpt lat="46.5693642712129" lon="6.96669020713271"><ele></ele><time>2014-4-28T15:32:3Z</time></trkpt>
<trkpt lat="46.5689871663958" lon="6.96674804356965"><ele></ele><time>2014-4-28T15:32:6Z</time></trkpt>
<trkpt lat="46.5686298148596" lon="6.96641950277541"><ele></ele><time>2014-4-28T15:32:9Z</time></trkpt>
<trkpt lat="46.5684093458414" lon="6.96633900491887"><ele></ele><time>2014-4-28T15:32:12Z</time></trkpt>
<trkpt lat="46.5680729925737" lon="6.96589000127532"><ele></ele><time>2014-4-28T15:32:15Z</time></trkpt>
<trkpt lat="46.5678301732539" lon="6.96558547458418"><ele></ele><time>2014-4-28T15:32:18Z</time></trkpt>
<trkpt lat="46.5677354144053" lon="6.96554709473651"><ele></ele><time>2014-4-28T15:32:21Z</time></trkpt>
<trkpt lat="46.5676318051249" lon="6.96554800035137"><ele></ele><time>2014-4-28T15:32:24Z</time></trkpt>
<trkpt lat="46.5675692949854" lon="6.96568250059428"><ele></ele><time>2014-4-28T15:32:27Z</time></trkpt>
<trkpt lat="46.5676020681135" lon="6.96597952153694"><ele></ele><time>2014-4-28T15:32:30Z</time></trkpt>
<trkpt lat="46.5676302856386" lon="6.96626282197893"><ele></ele><time>2014-4-28T15:32:33Z</time></trkpt>
<trkpt lat="46.5676026116063" lon="6.96670221590028"><ele></ele><time>2014-4-28T15:32:36Z</time></trkpt>
<trkpt lat="46.5675415308675" lon="6.96713852217837"><ele></ele><time>2014-4-28T15:32:39Z</time></trkpt>
<trkpt lat="46.5673933185131" lon="6.96758204214999"><ele></ele><time>2014-4-28T15:32:42Z</time></trkpt>
<trkpt lat="46.5672562953338" lon="6.96786248833368"><ele></ele><time>2014-4-28T15:32:45Z</time></trkpt>
<trkpt lat="46.5670602636806" lon="6.96805477907393"><ele></ele><time>2014-4-28T15:32:48Z</time></trkpt>
<trkpt lat="46.5668265092118" lon="6.96822232753544"><ele></ele><time>2014-4-28T15:32:51Z</time></trkpt>
<trkpt lat="46.5667063630933" lon="6.9683618884905"><ele></ele><time>2014-4-28T15:32:54Z</time></trkpt>
<trkpt lat="46.5662956149774" lon="6.96899522109586"><ele></ele><time>2014-4-28T15:32:57Z</time></trkpt>
<trkpt lat="46.5659937487314" lon="6.9694890856801"><ele></ele><time>2014-4-28T15:33:0Z</time></trkpt>
<trkpt lat="46.5657651875" lon="6.96973419721821"><ele></ele><time>2014-4-28T15:33:3Z</time></trkpt>
<trkpt lat="46.5653889759284" lon="6.97005294594162"><ele></ele><time>2014-4-28T15:33:6Z</time></trkpt>
<trkpt lat="46.5652124245484" lon="6.97028655521222"><ele></ele><time>2014-4-28T15:33:9Z</time></trkpt>
<trkpt lat="46.564939907041" lon="6.97089449329031"><ele></ele><time>2014-4-28T15:33:12Z</time></trkpt>
<trkpt lat="46.5647924471479" lon="6.97111738647594"><ele></ele><time>2014-4-28T15:33:15Z</time></trkpt>
<trkpt lat="46.5644599311496" lon="6.97112025849439"><ele></ele><time>2014-4-28T15:33:18Z</time></trkpt>
<trkpt lat="46.5642728326441" lon="6.97121978393654"><ele></ele><time>2014-4-28T15:33:21Z</time></trkpt>
<trkpt lat="46.5640789762493" lon="6.97150066905647"><ele></ele><time>2014-4-28T15:33:24Z</time></trkpt>
<trkpt lat="46.5638015548296" lon="6.97213401082667"><ele></ele><time>2014-4-28T15:33:27Z</time></trkpt>
<trkpt lat="46.5635972378253" lon="6.97252119643517"><ele></ele><time>2014-4-28T15:33:30Z</time></trkpt>
<trkpt lat="46.563402404115" lon="6.97256638298045"><ele></ele><time>2014-4-28T15:33:33Z</time></trkpt>
<trkpt lat="46.5633290096494" lon="6.97234944509756"><ele></ele><time>2014-4-28T15:33:36Z</time></trkpt>
<trkpt lat="46.5630800602111" lon="6.97171296860368"><ele></ele><time>2014-4-28T15:33:39Z</time></trkpt>
<trkpt lat="46.5626356833219" lon="6.97087068735335"><ele></ele><time>2014-4-28T15:33:42Z</time></trkpt>
<trkpt lat="46.562116066111" lon="6.96988581899088"><ele></ele><time>2014-4-28T15:33:45Z</time></trkpt>
<trkpt lat="46.5616166681148" lon="6.96902212170338"><ele></ele><time>2014-4-28T15:33:48Z</time></trkpt>
<trkpt lat="46.5614256287064" lon="6.96869173646186"><ele></ele><time>2014-4-28T15:33:51Z</time></trkpt>
<trkpt lat="46.5611293826518" lon="6.96840261844995"><ele></ele><time>2014-4-28T15:33:54Z</time></trkpt>
<trkpt lat="46.5604210601344" lon="6.96798991778197"><ele></ele><time>2014-4-28T15:33:57Z</time></trkpt>
<trkpt lat="46.5599934657774" lon="6.96769440067627"><ele></ele><time>2014-4-28T15:34:0Z</time></trkpt>
<trkpt lat="46.5598059603348" lon="6.96751452245528"><ele></ele><time>2014-4-28T15:34:3Z</time></trkpt>
<trkpt lat="46.5597031414831" lon="6.96732833952251"><ele></ele><time>2014-4-28T15:34:6Z</time></trkpt>
<trkpt lat="46.5596617558604" lon="6.9670969426805"><ele></ele><time>2014-4-28T15:34:9Z</time></trkpt>
<trkpt lat="46.5596601467559" lon="6.96670882115738"><ele></ele><time>2014-4-28T15:34:12Z</time></trkpt>
<trkpt lat="46.559744788917" lon="6.96580768351194"><ele></ele><time>2014-4-28T15:34:15Z</time></trkpt>
<trkpt lat="46.5596864490264" lon="6.96566857271424"><ele></ele><time>2014-4-28T15:34:18Z</time></trkpt>
<trkpt lat="46.5595819459288" lon="6.96554104205619"><ele></ele><time>2014-4-28T15:34:21Z</time></trkpt>
<trkpt lat="46.5594160652388" lon="6.96546989109348"><ele></ele><time>2014-4-28T15:34:24Z</time></trkpt>
<trkpt lat="46.5590720971873" lon="6.96540561820586"><ele></ele><time>2014-4-28T15:34:27Z</time></trkpt>
<trkpt lat="46.5587212247439" lon="6.96529698855473"><ele></ele><time>2014-4-28T15:34:30Z</time></trkpt>
<trkpt lat="46.5584124909582" lon="6.96513495397292"><ele></ele><time>2014-4-28T15:34:33Z</time></trkpt>
<trkpt lat="46.5580816618707" lon="6.96499201087805"><ele></ele><time>2014-4-28T15:34:36Z</time></trkpt>
<trkpt lat="46.5576976826331" lon="6.9647943328126"><ele></ele><time>2014-4-28T15:34:39Z</time></trkpt>
<trkpt lat="46.5574342485221" lon="6.96458426955151"><ele></ele><time>2014-4-28T15:34:42Z</time></trkpt>
<trkpt lat="46.557157840719" lon="6.96432423261399"><ele></ele><time>2014-4-28T15:34:45Z</time></trkpt>
<trkpt lat="46.5569392527933" lon="6.96408043566665"><ele></ele><time>2014-4-28T15:34:48Z</time></trkpt>
<trkpt lat="46.556814938448" lon="6.96381905664809"><ele></ele><time>2014-4-28T15:34:51Z</time></trkpt>
<trkpt lat="46.5567424942025" lon="6.96353210741141"><ele></ele><time>2014-4-28T15:34:54Z</time></trkpt>
<trkpt lat="46.5566076215831" lon="6.96322001720045"><ele></ele><time>2014-4-28T15:34:57Z</time></trkpt>
<trkpt lat="46.5564392075464" lon="6.96300370612168"><ele></ele><time>2014-4-28T15:35:0Z</time></trkpt>
<trkpt lat="46.5563098979755" lon="6.96292945502617"><ele></ele><time>2014-4-28T15:35:3Z</time></trkpt>
<trkpt lat="46.5559926531898" lon="6.96280888019924"><ele></ele><time>2014-4-28T15:35:6Z</time></trkpt>
<trkpt lat="46.5556367291941" lon="6.96268894676098"><ele></ele><time>2014-4-28T15:35:9Z</time></trkpt>
<trkpt lat="46.5552009808298" lon="6.96251840349157"><ele></ele><time>2014-4-28T15:35:12Z</time></trkpt>
<trkpt lat="46.5549838357679" lon="6.96237524106732"><ele></ele><time>2014-4-28T15:35:15Z</time></trkpt>
<trkpt lat="46.5549240620265" lon="6.96228572449272"><ele></ele><time>2014-4-28T15:35:18Z</time></trkpt>
<trkpt lat="46.5546914138599" lon="6.96217618720943"><ele></ele><time>2014-4-28T15:35:21Z</time></trkpt>
<trkpt lat="46.5544557143541" lon="6.96198250411738"><ele></ele><time>2014-4-28T15:35:24Z</time></trkpt>
<trkpt lat="46.5542466838007" lon="6.96178592764865"><ele></ele><time>2014-4-28T15:35:27Z</time></trkpt>
<trkpt lat="46.5540849080448" lon="6.96157872600643"><ele></ele><time>2014-4-28T15:35:30Z</time></trkpt>
<trkpt lat="46.5540113857328" lon="6.96142428965837"><ele></ele><time>2014-4-28T15:35:33Z</time></trkpt>
<trkpt lat="46.5539862187466" lon="6.96137142585468"><ele></ele><time>2014-4-28T15:35:36Z</time></trkpt>
<trkpt lat="46.5539675590605" lon="6.96133223579175"><ele></ele><time>2014-4-28T15:35:39Z</time></trkpt>
<trkpt lat="46.5539115436397" lon="6.96131536044854"><ele></ele><time>2014-4-28T15:35:42Z</time></trkpt>
<trkpt lat="46.5538367736598" lon="6.961316019664"><ele></ele><time>2014-4-28T15:35:45Z</time></trkpt>
<trkpt lat="46.5536990618094" lon="6.96130201626447"><ele></ele><time>2014-4-28T15:35:48Z</time></trkpt>
<trkpt lat="46.5536280789031" lon="6.96130264210593"><ele></ele><time>2014-4-28T15:35:51Z</time></trkpt>
<trkpt lat="46.5535715325716" lon="6.96136077680402"><ele></ele><time>2014-4-28T15:35:54Z</time></trkpt>
<trkpt lat="46.5534996051449" lon="6.96136141089352"><ele></ele><time>2014-4-28T15:35:57Z</time></trkpt>
<trkpt lat="46.5533868409798" lon="6.96133083561149"><ele></ele><time>2014-4-28T15:36:0Z</time></trkpt>
<trkpt lat="46.5532858781884" lon="6.96126570530169"><ele></ele><time>2014-4-28T15:36:3Z</time></trkpt>
<trkpt lat="46.5531547923835" lon="6.96115432808533"><ele></ele><time>2014-4-28T15:36:6Z</time></trkpt>
<trkpt lat="46.553042836635" lon="6.96105918662484"><ele></ele><time>2014-4-28T15:36:9Z</time></trkpt>
<trkpt lat="46.5529366199177" lon="6.96091044087994"><ele></ele><time>2014-4-28T15:36:12Z</time></trkpt>
<trkpt lat="46.5528584425856" lon="6.96077663945044"><ele></ele><time>2014-4-28T15:36:15Z</time></trkpt>
<trkpt lat="46.552776452339" lon="6.96063461796458"><ele></ele><time>2014-4-28T15:36:18Z</time></trkpt>
<trkpt lat="46.5526764884348" lon="6.96049688920798"><ele></ele><time>2014-4-28T15:36:21Z</time></trkpt>
<trkpt lat="46.5525526418087" lon="6.96038940215339"><ele></ele><time>2014-4-28T15:36:24Z</time></trkpt>
<trkpt lat="46.5524705670752" lon="6.96022954464341"><ele></ele><time>2014-4-28T15:36:27Z</time></trkpt>
<trkpt lat="46.5523569661106" lon="6.96007922437488"><ele></ele><time>2014-4-28T15:36:30Z</time></trkpt>
<trkpt lat="46.5521580505377" lon="6.96004255517482"><ele></ele><time>2014-4-28T15:36:33Z</time></trkpt>
<trkpt lat="46.5521001273856" lon="6.95999778102737"><ele></ele><time>2014-4-28T15:36:36Z</time></trkpt>
<trkpt lat="46.5519647365862" lon="6.95976154233571"><ele></ele><time>2014-4-28T15:36:39Z</time></trkpt>
<trkpt lat="46.5518743114246" lon="6.95973595030781"><ele></ele><time>2014-4-28T15:36:42Z</time></trkpt>
<trkpt lat="46.5517528981764" lon="6.95969595010129"><ele></ele><time>2014-4-28T15:36:45Z</time></trkpt>
<trkpt lat="46.5516375782412" lon="6.95950503045888"><ele></ele><time>2014-4-28T15:36:48Z</time></trkpt>
<trkpt lat="46.5515541635586" lon="6.95936692546777"><ele></ele><time>2014-4-28T15:36:51Z</time></trkpt>
<trkpt lat="46.5514168820198" lon="6.95923734314596"><ele></ele><time>2014-4-28T15:36:54Z</time></trkpt>
<trkpt lat="46.5512548927939" lon="6.95906171689417"><ele></ele><time>2014-4-28T15:36:57Z</time></trkpt>
<trkpt lat="46.5510903693216" lon="6.95891236216914"><ele></ele><time>2014-4-28T15:37:0Z</time></trkpt>
<trkpt lat="46.5508596621405" lon="6.95860481660593"><ele></ele><time>2014-4-28T15:37:3Z</time></trkpt>
<trkpt lat="46.5507350354505" lon="6.95843869419798"><ele></ele><time>2014-4-28T15:37:6Z</time></trkpt>
<trkpt lat="46.5505531836371" lon="6.95823568405089"><ele></ele><time>2014-4-28T15:37:9Z</time></trkpt>
<trkpt lat="46.55048442426" lon="6.95817278063842"><ele></ele><time>2014-4-28T15:37:12Z</time></trkpt>
<trkpt lat="46.5503824736939" lon="6.95809998843805"><ele></ele><time>2014-4-28T15:37:15Z</time></trkpt>
<trkpt lat="46.5502555971233" lon="6.95805731632749"><ele></ele><time>2014-4-28T15:37:18Z</time></trkpt>
<trkpt lat="46.5500679876933" lon="6.95802684041316"><ele></ele><time>2014-4-28T15:37:21Z</time></trkpt>
<trkpt lat="46.5497777006093" lon="6.95801126698463"><ele></ele><time>2014-4-28T15:37:24Z</time></trkpt>
<trkpt lat="46.5495081534283" lon="6.95799680045967"><ele></ele><time>2014-4-28T15:37:27Z</time></trkpt>
<trkpt lat="46.5494082598295" lon="6.95799144161946"><ele></ele><time>2014-4-28T15:37:30Z</time></trkpt>
<trkpt lat="46.549243152326" lon="6.95782556720033"><ele></ele><time>2014-4-28T15:37:33Z</time></trkpt>
<trkpt lat="46.5490522799386" lon="6.95768929900868"><ele></ele><time>2014-4-28T15:37:36Z</time></trkpt>
<trkpt lat="46.548879699702" lon="6.95754332489935"><ele></ele><time>2014-4-28T15:37:39Z</time></trkpt>
<trkpt lat="46.5486726933133" lon="6.9573869138334"><ele></ele><time>2014-4-28T15:37:42Z</time></trkpt>
<trkpt lat="46.5485039150811" lon="6.95725940972698"><ele></ele><time>2014-4-28T15:37:45Z</time></trkpt>
<trkpt lat="46.5483518580282" lon="6.95706772515789"><ele></ele><time>2014-4-28T15:37:48Z</time></trkpt>
<trkpt lat="46.548197463705" lon="6.95684676481165"><ele></ele><time>2014-4-28T15:37:51Z</time></trkpt>
<trkpt lat="46.548132976146" lon="6.95677952515643"><ele></ele><time>2014-4-28T15:37:54Z</time></trkpt>
<trkpt lat="46.5478182362912" lon="6.9568101893507"><ele></ele><time>2014-4-28T15:37:57Z</time></trkpt>
<trkpt lat="46.5476675024703" lon="6.95682486901396"><ele></ele><time>2014-4-28T15:38:0Z</time></trkpt>
<trkpt lat="46.5476142545913" lon="6.95693699083695"><ele></ele><time>2014-4-28T15:38:3Z</time></trkpt>
<trkpt lat="46.5476037146673" lon="6.95726287555609"><ele></ele><time>2014-4-28T15:38:6Z</time></trkpt>
<trkpt lat="46.5475890345936" lon="6.95746298926539"><ele></ele><time>2014-4-28T15:38:9Z</time></trkpt>
<trkpt lat="46.5475143854772" lon="6.95760071226846"><ele></ele><time>2014-4-28T15:38:12Z</time></trkpt>
<trkpt lat="46.5473739649813" lon="6.95784622045629"><ele></ele><time>2014-4-28T15:38:15Z</time></trkpt>
<trkpt lat="46.5472018446419" lon="6.95811556894747"><ele></ele><time>2014-4-28T15:38:18Z</time></trkpt>
<trkpt lat="46.5470125062061" lon="6.95842337488775"><ele></ele><time>2014-4-28T15:38:21Z</time></trkpt>
<trkpt lat="46.5468313350126" lon="6.95876527948226"><ele></ele><time>2014-4-28T15:38:24Z</time></trkpt>
<trkpt lat="46.5466710577507" lon="6.95912800126564"><ele></ele><time>2014-4-28T15:38:27Z</time></trkpt>
<trkpt lat="46.5464956173675" lon="6.9594577120965"><ele></ele><time>2014-4-28T15:38:30Z</time></trkpt>
<trkpt lat="46.5463432030051" lon="6.95974416530503"><ele></ele><time>2014-4-28T15:38:33Z</time></trkpt>
<trkpt lat="46.5461678054815" lon="6.96007379351997"><ele></ele><time>2014-4-28T15:38:36Z</time></trkpt>
<trkpt lat="46.5459988059235" lon="6.96040625752554"><ele></ele><time>2014-4-28T15:38:39Z</time></trkpt>
<trkpt lat="46.5458357501156" lon="6.96069982681989"><ele></ele><time>2014-4-28T15:38:42Z</time></trkpt>
<trkpt lat="46.5456154525861" lon="6.96106816335763"><ele></ele><time>2014-4-28T15:38:45Z</time></trkpt>
<trkpt lat="46.5453891314318" lon="6.96143119140458"><ele></ele><time>2014-4-28T15:38:48Z</time></trkpt>
<trkpt lat="46.5452477954342" lon="6.96169202052033"><ele></ele><time>2014-4-28T15:38:51Z</time></trkpt>
<trkpt lat="46.5450999292561" lon="6.96200469193901"><ele></ele><time>2014-4-28T15:38:54Z</time></trkpt>
<trkpt lat="46.5450157959599" lon="6.96223973463419"><ele></ele><time>2014-4-28T15:38:57Z</time></trkpt>
<trkpt lat="46.5449146167123" lon="6.96264709017908"><ele></ele><time>2014-4-28T15:39:0Z</time></trkpt>
<trkpt lat="46.5447936103083" lon="6.96313429193105"><ele></ele><time>2014-4-28T15:39:3Z</time></trkpt>
<trkpt lat="46.5447115340975" lon="6.96353069430554"><ele></ele><time>2014-4-28T15:39:6Z</time></trkpt>
<trkpt lat="46.5446648625042" lon="6.9639030694976"><ele></ele><time>2014-4-28T15:39:9Z</time></trkpt>
<trkpt lat="46.5446138404391" lon="6.96418166292462"><ele></ele><time>2014-4-28T15:39:12Z</time></trkpt>
<trkpt lat="46.5449145104928" lon="6.96448269095037"><ele></ele><time>2014-4-28T15:39:15Z</time></trkpt>
<trkpt lat="46.544980517832" lon="6.96488126454892"><ele></ele><time>2014-4-28T15:39:18Z</time></trkpt>
<trkpt lat="46.5449816079862" lon="6.96514309272205"><ele></ele><time>2014-4-28T15:39:21Z</time></trkpt>
<trkpt lat="46.545077383872" lon="6.96549718328778"><ele></ele><time>2014-4-28T15:39:24Z</time></trkpt>
<trkpt lat="46.5451479702359" lon="6.96575814425828"><ele></ele><time>2014-4-28T15:39:27Z</time></trkpt>
<trkpt lat="46.5451883064379" lon="6.96611298153712"><ele></ele><time>2014-4-28T15:39:30Z</time></trkpt>
<trkpt lat="46.545229108838" lon="6.9664720395291"><ele></ele><time>2014-4-28T15:39:33Z</time></trkpt>
<trkpt lat="46.5453458700177" lon="6.96685055362639"><ele></ele><time>2014-4-28T15:39:36Z</time></trkpt>
<trkpt lat="46.545580206875" lon="6.96752495829917"><ele></ele><time>2014-4-28T15:39:39Z</time></trkpt>
<trkpt lat="46.545724786932" lon="6.96803573998163"><ele></ele><time>2014-4-28T15:39:42Z</time></trkpt>
<trkpt lat="46.545899391274" lon="6.96852880583334"><ele></ele><time>2014-4-28T15:39:45Z</time></trkpt>
<trkpt lat="46.5460301757338" lon="6.96902637491095"><ele></ele><time>2014-4-28T15:39:48Z</time></trkpt>
<trkpt lat="46.5461291542189" lon="6.96967138240816"><ele></ele><time>2014-4-28T15:39:51Z</time></trkpt>
<trkpt lat="46.5462599995591" lon="6.97074669924605"><ele></ele><time>2014-4-28T15:39:54Z</time></trkpt>
<trkpt lat="46.5464322241836" lon="6.97149112199336"><ele></ele><time>2014-4-28T15:39:57Z</time></trkpt>
<trkpt lat="46.5466186804204" lon="6.97243213365672"><ele></ele><time>2014-4-28T15:40:0Z</time></trkpt>
<trkpt lat="46.5467814680047" lon="6.97298351280668"><ele></ele><time>2014-4-28T15:40:3Z</time></trkpt>
<trkpt lat="46.546727173018" lon="6.9733866773092"><ele></ele><time>2014-4-28T15:40:6Z</time></trkpt>
<trkpt lat="46.5467962894219" lon="6.97409596166205"><ele></ele><time>2014-4-28T15:40:9Z</time></trkpt>
<trkpt lat="46.5468938381233" lon="6.97488937461419"><ele></ele><time>2014-4-28T15:40:12Z</time></trkpt>
<trkpt lat="46.5469656066676" lon="6.97526697339787"><ele></ele><time>2014-4-28T15:40:15Z</time></trkpt>
<trkpt lat="46.5470492059965" lon="6.97556123571705"><ele></ele><time>2014-4-28T15:40:18Z</time></trkpt>
<trkpt lat="46.5469659642301" lon="6.97569505508325"><ele></ele><time>2014-4-28T15:40:21Z</time></trkpt>
<trkpt lat="46.5468878928186" lon="6.97569572258057"><ele></ele><time>2014-4-28T15:40:24Z</time></trkpt>
<trkpt lat="46.5466477112489" lon="6.97538758498374"><ele></ele><time>2014-4-28T15:40:27Z</time></trkpt>
<trkpt lat="46.5464361753276" lon="6.97530786740791"><ele></ele><time>2014-4-28T15:40:30Z</time></trkpt>
<trkpt lat="46.5463347629826" lon="6.97533136931468"><ele></ele><time>2014-4-28T15:40:33Z</time></trkpt>
<trkpt lat="46.5462944708581" lon="6.97540643533655"><ele></ele><time>2014-4-28T15:40:36Z</time></trkpt>
<trkpt lat="46.5463435205791" lon="6.97556450681419"><ele></ele><time>2014-4-28T15:40:39Z</time></trkpt>
<trkpt lat="46.5465286400822" lon="6.97577348961456"><ele></ele><time>2014-4-28T15:40:42Z</time></trkpt>
<trkpt lat="46.5466323271774" lon="6.97592657096123"><ele></ele><time>2014-4-28T15:40:45Z</time></trkpt>
<trkpt lat="46.5466331558243" lon="6.97613033737282"><ele></ele><time>2014-4-28T15:40:48Z</time></trkpt>
<trkpt lat="46.5465439975881" lon="6.97647750938771"><ele></ele><time>2014-4-28T15:40:51Z</time></trkpt>
<trkpt lat="46.5463391882055" lon="6.97682007328243"><ele></ele><time>2014-4-28T15:40:54Z</time></trkpt>
<trkpt lat="46.5462132822829" lon="6.97696378354516"><ele></ele><time>2014-4-28T15:40:57Z</time></trkpt>
<trkpt lat="46.5459811850101" lon="6.97710839827023"><ele></ele><time>2014-4-28T15:41:0Z</time></trkpt>
<trkpt lat="46.5455660027544" lon="6.9772987833368"><ele></ele><time>2014-4-28T15:41:3Z</time></trkpt>
<trkpt lat="46.5453938609212" lon="6.97724798117462"><ele></ele><time>2014-4-28T15:41:6Z</time></trkpt>
<trkpt lat="46.5452140831341" lon="6.97736611028899"><ele></ele><time>2014-4-28T15:41:9Z</time></trkpt>
<trkpt lat="46.5448991801358" lon="6.97757302914085"><ele></ele><time>2014-4-28T15:41:12Z</time></trkpt>
<trkpt lat="46.5447484995019" lon="6.97761475513427"><ele></ele><time>2014-4-28T15:41:15Z</time></trkpt>
<trkpt lat="46.5446723937402" lon="6.97754775051565"><ele></ele><time>2014-4-28T15:41:18Z</time></trkpt>
<trkpt lat="46.5445665964898" lon="6.97734849714405"><ele></ele><time>2014-4-28T15:41:21Z</time></trkpt>
<trkpt lat="46.5445010912529" lon="6.97732232799236"><ele></ele><time>2014-4-28T15:41:24Z</time></trkpt>
<trkpt lat="46.5442744013326" lon="6.97736965615549"><ele></ele><time>2014-4-28T15:41:27Z</time></trkpt>
<trkpt lat="46.5441444328294" lon="6.97739679930473"><ele></ele><time>2014-4-28T15:41:30Z</time></trkpt>
<trkpt lat="46.5437292191206" lon="6.97718244089304"><ele></ele><time>2014-4-28T15:41:33Z</time></trkpt>
<trkpt lat="46.5436748491063" lon="6.97722243378112"><ele></ele><time>2014-4-28T15:41:36Z</time></trkpt>
<trkpt lat="46.5436766680307" lon="6.97767106309741"><ele></ele><time>2014-4-28T15:41:39Z</time></trkpt>
<trkpt lat="46.5442836079311" lon="6.97835443790084"><ele></ele><time>2014-4-28T15:41:42Z</time></trkpt>
<trkpt lat="46.5445007070204" lon="6.97884271685686"><ele></ele><time>2014-4-28T15:41:45Z</time></trkpt>
<trkpt lat="46.5448322298365" lon="6.97940004173356"><ele></ele><time>2014-4-28T15:41:48Z</time></trkpt>
<trkpt lat="46.5452473956286" lon="6.98001395310311"><ele></ele><time>2014-4-28T15:41:51Z</time></trkpt>
<trkpt lat="46.5452483087909" lon="6.98024050371253"><ele></ele><time>2014-4-28T15:41:54Z</time></trkpt>
<trkpt lat="46.545630776727" lon="6.98043145264822"><ele></ele><time>2014-4-28T15:41:57Z</time></trkpt>
<trkpt lat="46.5459080046791" lon="6.9806920698483"><ele></ele><time>2014-4-28T15:42:0Z</time></trkpt>
<trkpt lat="46.5465191549703" lon="6.98096182314801"><ele></ele><time>2014-4-28T15:42:3Z</time></trkpt>
<trkpt lat="46.54709542587" lon="6.9817817271792"><ele></ele><time>2014-4-28T15:42:6Z</time></trkpt>
<trkpt lat="46.5478803242312" lon="6.98161859086629"><ele></ele><time>2014-4-28T15:42:9Z</time></trkpt>
<trkpt lat="46.5483210317996" lon="6.9815260262135"><ele></ele><time>2014-4-28T15:42:12Z</time></trkpt>
<trkpt lat="46.5486070783666" lon="6.98160881877806"><ele></ele><time>2014-4-28T15:42:15Z</time></trkpt>
<trkpt lat="46.548948510458" lon="6.98186154779991"><ele></ele><time>2014-4-28T15:42:18Z</time></trkpt>
<trkpt lat="46.5491865995682" lon="6.98211221762989"><ele></ele><time>2014-4-28T15:42:21Z</time></trkpt>
<trkpt lat="46.5494777181347" lon="6.98215436888992"><ele></ele><time>2014-4-28T15:42:24Z</time></trkpt>
<trkpt lat="46.5501869097687" lon="6.98214838966139"><ele></ele><time>2014-4-28T15:42:27Z</time></trkpt>
<trkpt lat="46.5502803590936" lon="6.98220930250282"><ele></ele><time>2014-4-28T15:42:30Z</time></trkpt>
<trkpt lat="46.5505552801024" lon="6.98255074783806"><ele></ele><time>2014-4-28T15:42:33Z</time></trkpt>
<trkpt lat="46.5508014053794" lon="6.98285643789172"><ele></ele><time>2014-4-28T15:42:36Z</time></trkpt>
<trkpt lat="46.550985803437" lon="6.98300547539728"><ele></ele><time>2014-4-28T15:42:39Z</time></trkpt>
<trkpt lat="46.5513117850057" lon="6.98294103019678"><ele></ele><time>2014-4-28T15:42:42Z</time></trkpt>
<trkpt lat="46.5517271446116" lon="6.9827701476154"><ele></ele><time>2014-4-28T15:42:45Z</time></trkpt>
<trkpt lat="46.5519095091948" lon="6.98276861211526"><ele></ele><time>2014-4-28T15:42:48Z</time></trkpt>
<trkpt lat="46.5520458334162" lon="6.9829084990956"><ele></ele><time>2014-4-28T15:42:51Z</time></trkpt>
<trkpt lat="46.5520688775547" lon="6.983141372578"><ele></ele><time>2014-4-28T15:42:54Z</time></trkpt>
<trkpt lat="46.5519772035399" lon="6.98366334352712"><ele></ele><time>2014-4-28T15:42:57Z</time></trkpt>
<trkpt lat="46.5518726507975" lon="6.98418445587314"><ele></ele><time>2014-4-28T15:43:0Z</time></trkpt>
<trkpt lat="46.551824881597" lon="6.98503154471395"><ele></ele><time>2014-4-28T15:43:3Z</time></trkpt>
<trkpt lat="46.5517583359112" lon="6.98580051356384"><ele></ele><time>2014-4-28T15:43:6Z</time></trkpt>
<trkpt lat="46.5516447719766" lon="6.98652161438867"><ele></ele><time>2014-4-28T15:43:9Z</time></trkpt>
<trkpt lat="46.5516066797725" lon="6.98694631127658"><ele></ele><time>2014-4-28T15:43:12Z</time></trkpt>
<trkpt lat="46.5516074974765" lon="6.98715231319713"><ele></ele><time>2014-4-28T15:43:15Z</time></trkpt>
<trkpt lat="46.5514434774031" lon="6.98734938800628"><ele></ele><time>2014-4-28T15:43:18Z</time></trkpt>
<trkpt lat="46.551235130438" lon="6.98799475569278"><ele></ele><time>2014-4-28T15:43:21Z</time></trkpt>
<trkpt lat="46.5510533751684" lon="6.98837737878315"><ele></ele><time>2014-4-28T15:43:24Z</time></trkpt>
<trkpt lat="46.5510556158178" lon="6.98894387509077"><ele></ele><time>2014-4-28T15:43:27Z</time></trkpt>
<trkpt lat="46.5509557755323" lon="6.98920426254415"><ele></ele><time>2014-4-28T15:43:30Z</time></trkpt>
<trkpt lat="46.5507941470325" lon="6.98928801167166"><ele></ele><time>2014-4-28T15:43:33Z</time></trkpt>
<trkpt lat="46.5505997403335" lon="6.98934729709682"><ele></ele><time>2014-4-28T15:43:36Z</time></trkpt>
<trkpt lat="46.5504280766592" lon="6.98955742490647"><ele></ele><time>2014-4-28T15:43:39Z</time></trkpt>
<trkpt lat="46.5503182454164" lon="6.98980760321611"><ele></ele><time>2014-4-28T15:43:42Z</time></trkpt>
<trkpt lat="46.5503192285324" lon="6.99005686239999"><ele></ele><time>2014-4-28T15:43:45Z</time></trkpt>
<trkpt lat="46.5504069868436" lon="6.99033423240965"><ele></ele><time>2014-4-28T15:43:48Z</time></trkpt>
<trkpt lat="46.5504080255485" lon="6.99059789970475"><ele></ele><time>2014-4-28T15:43:51Z</time></trkpt>
<trkpt lat="46.5503051065419" lon="6.99086326125799"><ele></ele><time>2014-4-28T15:43:54Z</time></trkpt>
<trkpt lat="46.5502834287833" lon="6.99113124918888"><ele></ele><time>2014-4-28T15:43:57Z</time></trkpt>
<trkpt lat="46.5503510922187" lon="6.99135935569606"><ele></ele><time>2014-4-28T15:44:0Z</time></trkpt>
<trkpt lat="46.5506220873278" lon="6.99162903461889"><ele></ele><time>2014-4-28T15:44:3Z</time></trkpt>
<trkpt lat="46.5507281719817" lon="6.99187124740398"><ele></ele><time>2014-4-28T15:44:6Z</time></trkpt>
<trkpt lat="46.5507114528244" lon="6.99224120124903"><ele></ele><time>2014-4-28T15:44:9Z</time></trkpt>
<trkpt lat="46.5506172649604" lon="6.99249741397056"><ele></ele><time>2014-4-28T15:44:12Z</time></trkpt>
<trkpt lat="46.5503811980712" lon="6.99280013099784"><ele></ele><time>2014-4-28T15:44:15Z</time></trkpt>
<trkpt lat="46.5501979407347" lon="6.99295952936625"><ele></ele><time>2014-4-28T15:44:18Z</time></trkpt>
<trkpt lat="46.5499892476581" lon="6.99299833000613"><ele></ele><time>2014-4-28T15:44:21Z</time></trkpt>
<trkpt lat="46.5497489493502" lon="6.99294675706178"><ele></ele><time>2014-4-28T15:44:24Z</time></trkpt>
<trkpt lat="46.5495600863822" lon="6.99277523394876"><ele></ele><time>2014-4-28T15:44:27Z</time></trkpt>
<trkpt lat="46.5493730750862" lon="6.99254605219734"><ele></ele><time>2014-4-28T15:44:30Z</time></trkpt>
<trkpt lat="46.5492734931189" lon="6.99251186350869"><ele></ele><time>2014-4-28T15:44:33Z</time></trkpt>
<trkpt lat="46.5491814294368" lon="6.99258265327523"><ele></ele><time>2014-4-28T15:44:36Z</time></trkpt>
<trkpt lat="46.5491453662086" lon="6.99280543065087"><ele></ele><time>2014-4-28T15:44:39Z</time></trkpt>
<trkpt lat="46.5491469154965" lon="6.99320093549181"><ele></ele><time>2014-4-28T15:44:42Z</time></trkpt>
<trkpt lat="46.5491268732844" lon="6.99338254762136"><ele></ele><time>2014-4-28T15:44:45Z</time></trkpt>
<trkpt lat="46.5490160859389" lon="6.99358132130195"><ele></ele><time>2014-4-28T15:44:48Z</time></trkpt>
<trkpt lat="46.548819536296" lon="6.99375336542411"><ele></ele><time>2014-4-28T15:44:51Z</time></trkpt>
<trkpt lat="46.548593096098" lon="6.99384782626897"><ele></ele><time>2014-4-28T15:44:54Z</time></trkpt>
<trkpt lat="46.5483742266452" lon="6.9939160557378"><ele></ele><time>2014-4-28T15:44:57Z</time></trkpt>
<trkpt lat="46.5482110160565" lon="6.99395494722971"><ele></ele><time>2014-4-28T15:45:0Z</time></trkpt>
<trkpt lat="46.5480434530654" lon="6.99432347417523"><ele></ele><time>2014-4-28T15:45:3Z</time></trkpt>
<trkpt lat="46.5477546495051" lon="6.99485010583156"><ele></ele><time>2014-4-28T15:45:6Z</time></trkpt>
<trkpt lat="46.5476012393793" lon="6.99507696631108"><ele></ele><time>2014-4-28T15:45:9Z</time></trkpt>
<trkpt lat="46.5474476026823" lon="6.9952296522185"><ele></ele><time>2014-4-28T15:45:12Z</time></trkpt>
<trkpt lat="46.5472376168714" lon="6.99525778739097"><ele></ele><time>2014-4-28T15:45:15Z</time></trkpt>
<trkpt lat="46.5469953153901" lon="6.99525977148191"><ele></ele><time>2014-4-28T15:45:18Z</time></trkpt>
<trkpt lat="46.5468028019125" lon="6.99509704061701"><ele></ele><time>2014-4-28T15:45:21Z</time></trkpt>
<trkpt lat="46.5466817880166" lon="6.99489553623796"><ele></ele><time>2014-4-28T15:45:24Z</time></trkpt>
<trkpt lat="46.5466800954179" lon="6.99446183573243"><ele></ele><time>2014-4-28T15:45:27Z</time></trkpt>
<trkpt lat="46.5466328587971" lon="6.99399209366125"><ele></ele><time>2014-4-28T15:45:30Z</time></trkpt>
<trkpt lat="46.5464955532536" lon="6.99366219646601"><ele></ele><time>2014-4-28T15:45:33Z</time></trkpt>
<trkpt lat="46.5462580970453" lon="6.99330239386695"><ele></ele><time>2014-4-28T15:45:36Z</time></trkpt>
<trkpt lat="46.5459301860905" lon="6.99298815049723"><ele></ele><time>2014-4-28T15:45:39Z</time></trkpt>
<trkpt lat="46.5456988112058" lon="6.99282631146995"><ele></ele><time>2014-4-28T15:45:42Z</time></trkpt>
<trkpt lat="46.5454708950933" lon="6.99271614049202"><ele></ele><time>2014-4-28T15:45:45Z</time></trkpt>
<trkpt lat="46.545235587091" lon="6.99266172886886"><ele></ele><time>2014-4-28T15:45:48Z</time></trkpt>
<trkpt lat="46.5450932588279" lon="6.99253614781878"><ele></ele><time>2014-4-28T15:45:51Z</time></trkpt>
<trkpt lat="46.5450573431971" lon="6.99229417585122"><ele></ele><time>2014-4-28T15:45:54Z</time></trkpt>
<trkpt lat="46.5451595513225" lon="6.99209896589434"><ele></ele><time>2014-4-28T15:45:57Z</time></trkpt>
<trkpt lat="46.5454208029862" lon="6.99183482871645"><ele></ele><time>2014-4-28T15:46:0Z</time></trkpt>
<trkpt lat="46.5457751860399" lon="6.99153612569923"><ele></ele><time>2014-4-28T15:46:3Z</time></trkpt>
<trkpt lat="46.5459977139476" lon="6.9913485489405"><ele></ele><time>2014-4-28T15:46:6Z</time></trkpt>
<trkpt lat="46.5460939168427" lon="6.99106785400097"><ele></ele><time>2014-4-28T15:46:9Z</time></trkpt>
<trkpt lat="46.5460592201675" lon="6.99064276256524"><ele></ele><time>2014-4-28T15:46:12Z</time></trkpt>
<trkpt lat="46.545969073927" lon="6.99094211752794"><ele></ele><time>2014-4-28T15:46:15Z</time></trkpt>
<trkpt lat="46.5458826556827" lon="6.99119917158373"><ele></ele><time>2014-4-28T15:46:18Z</time></trkpt>
<trkpt lat="46.5457159065777" lon="6.99128506134486"><ele></ele><time>2014-4-28T15:46:21Z</time></trkpt>
<trkpt lat="46.5454812847235" lon="6.99140531841745"><ele></ele><time>2014-4-28T15:46:24Z</time></trkpt>
<trkpt lat="46.5452954062624" lon="6.99157023070012"><ele></ele><time>2014-4-28T15:46:27Z</time></trkpt>
<trkpt lat="46.5451974907911" lon="6.99157103912467"><ele></ele><time>2014-4-28T15:46:30Z</time></trkpt>
<trkpt lat="46.544790973005" lon="6.99145884224482"><ele></ele><time>2014-4-28T15:46:33Z</time></trkpt>
<trkpt lat="46.5442517493818" lon="6.99135337547649"><ele></ele><time>2014-4-28T15:46:36Z</time></trkpt>
<trkpt lat="46.5439716294985" lon="6.99126836406832"><ele></ele><time>2014-4-28T15:46:39Z</time></trkpt>
<trkpt lat="46.5438298900269" lon="6.99124484209908"><ele></ele><time>2014-4-28T15:46:42Z</time></trkpt>
<trkpt lat="46.5436849302622" lon="6.99130142282628"><ele></ele><time>2014-4-28T15:46:45Z</time></trkpt>
<trkpt lat="46.5434236697156" lon="6.99149203641567"><ele></ele><time>2014-4-28T15:46:48Z</time></trkpt>
<trkpt lat="46.5432258141288" lon="6.99169722204904"><ele></ele><time>2014-4-28T15:46:51Z</time></trkpt>
<trkpt lat="46.5431737159438" lon="6.99180844317914"><ele></ele><time>2014-4-28T15:46:54Z</time></trkpt>
<trkpt lat="46.5431544365744" lon="6.99210816060844"><ele></ele><time>2014-4-28T15:46:57Z</time></trkpt>
<trkpt lat="46.5431555939666" lon="6.9924030941987"><ele></ele><time>2014-4-28T15:47:0Z</time></trkpt>
<trkpt lat="46.543048383421" lon="6.99258676044638"><ele></ele><time>2014-4-28T15:47:3Z</time></trkpt>
<trkpt lat="46.5428189247411" lon="6.99283119520234"><ele></ele><time>2014-4-28T15:47:6Z</time></trkpt>
<trkpt lat="46.5426935109315" lon="6.99324347316546"><ele></ele><time>2014-4-28T15:47:9Z</time></trkpt>
<trkpt lat="46.54260895929" lon="6.99336048633126"><ele></ele><time>2014-4-28T15:47:12Z</time></trkpt>
<trkpt lat="46.5423237538412" lon="6.99355701930945"><ele></ele><time>2014-4-28T15:47:15Z</time></trkpt>
<trkpt lat="46.5421045435436" lon="6.99367375574823"><ele></ele><time>2014-4-28T15:47:18Z</time></trkpt>
<trkpt lat="46.5421840131792" lon="6.99384888166319"><ele></ele><time>2014-4-28T15:47:21Z</time></trkpt>
<trkpt lat="46.5424557196797" lon="6.99404654842296"><ele></ele><time>2014-4-28T15:47:24Z</time></trkpt>
<trkpt lat="46.5425479731927" lon="6.99412997197773"><ele></ele><time>2014-4-28T15:47:27Z</time></trkpt>
<trkpt lat="46.5426848741162" lon="6.99449709689179"><ele></ele><time>2014-4-28T15:47:30Z</time></trkpt>
<trkpt lat="46.5428147835009" lon="6.99493092726197"><ele></ele><time>2014-4-28T15:47:33Z</time></trkpt>
<trkpt lat="46.5431521596732" lon="6.99521927290088"><ele></ele><time>2014-4-28T15:47:36Z</time></trkpt>
<trkpt lat="46.5432252680622" lon="6.9953554488401"><ele></ele><time>2014-4-28T15:47:39Z</time></trkpt>
<trkpt lat="46.5433100550142" lon="6.99542986291975"><ele></ele><time>2014-4-28T15:47:42Z</time></trkpt>
<trkpt lat="46.5437496568205" lon="6.99563487713538"><ele></ele><time>2014-4-28T15:47:45Z</time></trkpt>
<trkpt lat="46.5441215593557" lon="6.99580832377111"><ele></ele><time>2014-4-28T15:47:48Z</time></trkpt>
<trkpt lat="46.5443720301751" lon="6.99587828211315"><ele></ele><time>2014-4-28T15:47:51Z</time></trkpt>
<trkpt lat="46.5443725132485" lon="6.99600240917863"><ele></ele><time>2014-4-28T15:47:54Z</time></trkpt>
<trkpt lat="46.5442902551932" lon="6.99625651915563"><ele></ele><time>2014-4-28T15:47:57Z</time></trkpt>
<trkpt lat="46.5442421769217" lon="6.99643105477363"><ele></ele><time>2014-4-28T15:48:0Z</time></trkpt>
<trkpt lat="46.5443050234286" lon="6.99669088909418"><ele></ele><time>2014-4-28T15:48:3Z</time></trkpt>
<trkpt lat="46.5444629217328" lon="6.99699099112744"><ele></ele><time>2014-4-28T15:48:6Z</time></trkpt>
<trkpt lat="46.5445916388942" lon="6.99728924672367"><ele></ele><time>2014-4-28T15:48:9Z</time></trkpt>
<trkpt lat="46.5449392573487" lon="6.99777309910657"><ele></ele><time>2014-4-28T15:48:12Z</time></trkpt>
<trkpt lat="46.545174185998" lon="6.99819702679159"><ele></ele><time>2014-4-28T15:48:15Z</time></trkpt>
<trkpt lat="46.545329804136" lon="6.99849474453777"><ele></ele><time>2014-4-28T15:48:18Z</time></trkpt>
<trkpt lat="46.545563337172" lon="6.99881433447764"><ele></ele><time>2014-4-28T15:48:21Z</time></trkpt>
<trkpt lat="46.5456756729217" lon="6.99892059366749"><ele></ele><time>2014-4-28T15:48:24Z</time></trkpt>
<trkpt lat="46.5458237082352" lon="6.99897450293066"><ele></ele><time>2014-4-28T15:48:27Z</time></trkpt>
<trkpt lat="46.5460352433266" lon="6.99906770196544"><ele></ele><time>2014-4-28T15:48:30Z</time></trkpt>
<trkpt lat="46.5462580675047" lon="6.99922830810623"><ele></ele><time>2014-4-28T15:48:33Z</time></trkpt>
<trkpt lat="46.5464632340871" lon="6.99931236868587"><ele></ele><time>2014-4-28T15:48:36Z</time></trkpt>
<trkpt lat="46.5466962603571" lon="6.99937778098437"><ele></ele><time>2014-4-28T15:48:39Z</time></trkpt>
<trkpt lat="46.5468571147205" lon="6.99947139414884"><ele></ele><time>2014-4-28T15:48:42Z</time></trkpt>
<trkpt lat="46.5470562556148" lon="6.99963513000701"><ele></ele><time>2014-4-28T15:48:45Z</time></trkpt>
<trkpt lat="46.5472787288057" lon="6.99982622789234"><ele></ele><time>2014-4-28T15:48:48Z</time></trkpt>
<trkpt lat="46.5476763928465" lon="7.00022248849591"><ele></ele><time>2014-4-28T15:48:51Z</time></trkpt>
<trkpt lat="46.5478631676718" lon="7.00035928795243"><ele></ele><time>2014-4-28T15:48:54Z</time></trkpt>
<trkpt lat="46.5481185688439" lon="7.00056098630391"><ele></ele><time>2014-4-28T15:48:57Z</time></trkpt>
<trkpt lat="46.5483674890604" lon="7.00083419027743"><ele></ele><time>2014-4-28T15:49:0Z</time></trkpt>
<trkpt lat="46.5485743350193" lon="7.00102539792682"><ele></ele><time>2014-4-28T15:49:3Z</time></trkpt>
<trkpt lat="46.5488776283586" lon="7.00121074277419"><ele></ele><time>2014-4-28T15:49:6Z</time></trkpt>
<trkpt lat="46.5492339961762" lon="7.00140544016951"><ele></ele><time>2014-4-28T15:49:9Z</time></trkpt>
<trkpt lat="46.5496086273646" lon="7.00161012390012"><ele></ele><time>2014-4-28T15:49:12Z</time></trkpt>
<trkpt lat="46.5500344409828" lon="7.00178125248828"><ele></ele><time>2014-4-28T15:49:15Z</time></trkpt>
<trkpt lat="46.5504787510815" lon="7.00195981028256"><ele></ele><time>2014-4-28T15:49:18Z</time></trkpt>
<trkpt lat="46.5506005855164" lon="7.0019588276535"><ele></ele><time>2014-4-28T15:49:21Z</time></trkpt>
<trkpt lat="46.5507710090134" lon="7.00185320522328"><ele></ele><time>2014-4-28T15:49:24Z</time></trkpt>
<trkpt lat="46.5508570593648" lon="7.00187355623257"><ele></ele><time>2014-4-28T15:49:27Z</time></trkpt>
<trkpt lat="46.5510244810785" lon="7.00201472409816"><ele></ele><time>2014-4-28T15:49:30Z</time></trkpt>
<trkpt lat="46.5512569127333" lon="7.00206627151181"><ele></ele><time>2014-4-28T15:49:33Z</time></trkpt>
<trkpt lat="46.551553496259" lon="7.00210930903569"><ele></ele><time>2014-4-28T15:49:36Z</time></trkpt>
<trkpt lat="46.5517586136645" lon="7.00212252012481"><ele></ele><time>2014-4-28T15:49:39Z</time></trkpt>
<trkpt lat="46.5519377489974" lon="7.00197804646308"><ele></ele><time>2014-4-28T15:49:42Z</time></trkpt>
<trkpt lat="46.552107765265" lon="7.00181321258087"><ele></ele><time>2014-4-28T15:49:45Z</time></trkpt>
<trkpt lat="46.5522525003149" lon="7.00179049053844"><ele></ele><time>2014-4-28T15:49:48Z</time></trkpt>
<trkpt lat="46.5523359824398" lon="7.00182842695276"><ele></ele><time>2014-4-28T15:49:51Z</time></trkpt>
<trkpt lat="46.5524375013899" lon="7.00196723528802"><ele></ele><time>2014-4-28T15:49:54Z</time></trkpt>
<trkpt lat="46.5524381373654" lon="7.00213296270572"><ele></ele><time>2014-4-28T15:49:57Z</time></trkpt>
<trkpt lat="46.5523659119292" lon="7.00228338215949"><ele></ele><time>2014-4-28T15:50:0Z</time></trkpt>
<trkpt lat="46.5522592687966" lon="7.00244088512302"><ele></ele><time>2014-4-28T15:50:3Z</time></trkpt>
<trkpt lat="46.5522330428942" lon="7.00254326081762"><ele></ele><time>2014-4-28T15:50:6Z</time></trkpt>
<trkpt lat="46.552283439087" lon="7.00261891430218"><ele></ele><time>2014-4-28T15:50:9Z</time></trkpt>
<trkpt lat="46.552369543574" lon="7.00261822087042"><ele></ele><time>2014-4-28T15:50:12Z</time></trkpt>
<trkpt lat="46.5525163920267" lon="7.00273850172034"><ele></ele><time>2014-4-28T15:50:15Z</time></trkpt>
<trkpt lat="46.5526441197724" lon="7.0028763580141"><ele></ele><time>2014-4-28T15:50:18Z</time></trkpt>
<trkpt lat="46.5530650713414" lon="7.00308212651307"><ele></ele><time>2014-4-28T15:50:21Z</time></trkpt>
<trkpt lat="46.5532187944896" lon="7.00353223386822"><ele></ele><time>2014-4-28T15:50:24Z</time></trkpt>
<trkpt lat="46.5532203993002" lon="7.00395206104153"><ele></ele><time>2014-4-28T15:50:27Z</time></trkpt>
<trkpt lat="46.5535406068832" lon="7.00440083682406"><ele></ele><time>2014-4-28T15:50:30Z</time></trkpt>
<trkpt lat="46.5537671113565" lon="7.00495532649545"><ele></ele><time>2014-4-28T15:50:33Z</time></trkpt>
<trkpt lat="46.553951949999" lon="7.00508603133459"><ele></ele><time>2014-4-28T15:50:36Z</time></trkpt>
<trkpt lat="46.5541067570151" lon="7.00577576492389"><ele></ele><time>2014-4-28T15:50:39Z</time></trkpt>
<trkpt lat="46.5542923386894" lon="7.00603114271117"><ele></ele><time>2014-4-28T15:50:42Z</time></trkpt>
<trkpt lat="46.5543818431986" lon="7.00660563512091"><ele></ele><time>2014-4-28T15:50:45Z</time></trkpt>
<trkpt lat="46.5544851842956" lon="7.00726897820807"><ele></ele><time>2014-4-28T15:50:48Z</time></trkpt>
<trkpt lat="46.5546210508143" lon="7.00784460535676"><ele></ele><time>2014-4-28T15:50:51Z</time></trkpt>
<trkpt lat="46.5546480127041" lon="7.00819443835873"><ele></ele><time>2014-4-28T15:50:54Z</time></trkpt>
<trkpt lat="46.5546326747435" lon="7.00836084718347"><ele></ele><time>2014-4-28T15:50:57Z</time></trkpt>
<trkpt lat="46.5545165482116" lon="7.00861049572932"><ele></ele><time>2014-4-28T15:51:0Z</time></trkpt>
<trkpt lat="46.5544631248819" lon="7.00872535929845"><ele></ele><time>2014-4-28T15:51:3Z</time></trkpt>
<trkpt lat="46.5544449700843" lon="7.0091203551693"><ele></ele><time>2014-4-28T15:51:6Z</time></trkpt>
<trkpt lat="46.5544095554289" lon="7.00947595026798"><ele></ele><time>2014-4-28T15:51:9Z</time></trkpt>
<trkpt lat="46.5544264792924" lon="7.00963176161187"><ele></ele><time>2014-4-28T15:51:12Z</time></trkpt>
<trkpt lat="46.5545827848404" lon="7.00987405897887"><ele></ele><time>2014-4-28T15:51:15Z</time></trkpt>
<trkpt lat="46.5547434399" lon="7.01024192543607"><ele></ele><time>2014-4-28T15:51:18Z</time></trkpt>
<trkpt lat="46.5548772803141" lon="7.0107205471589"><ele></ele><time>2014-4-28T15:51:21Z</time></trkpt>
<trkpt lat="46.5550525306896" lon="7.01125309135911"><ele></ele><time>2014-4-28T15:51:24Z</time></trkpt>
<trkpt lat="46.5551662660642" lon="7.01159872345932"><ele></ele><time>2014-4-28T15:51:27Z</time></trkpt>
<trkpt lat="46.5551918932214" lon="7.01177807174763"><ele></ele><time>2014-4-28T15:51:30Z</time></trkpt>
<trkpt lat="46.5553179960597" lon="7.01218128530559"><ele></ele><time>2014-4-28T15:51:33Z</time></trkpt>
<trkpt lat="46.5553556417763" lon="7.01240417235222"><ele></ele><time>2014-4-28T15:51:36Z</time></trkpt>
<trkpt lat="46.5553562523421" lon="7.01256718349841"><ele></ele><time>2014-4-28T15:51:39Z</time></trkpt>
<trkpt lat="46.5551643645423" lon="7.01294929758619"><ele></ele><time>2014-4-28T15:51:42Z</time></trkpt>
<trkpt lat="46.5550317459372" lon="7.01301324606451"><ele></ele><time>2014-4-28T15:51:45Z</time></trkpt>
<trkpt lat="46.5547839158002" lon="7.01345167248198"><ele></ele><time>2014-4-28T15:51:48Z</time></trkpt>
<trkpt lat="46.5546793109018" lon="7.01375919643134"><ele></ele><time>2014-4-28T15:51:51Z</time></trkpt>
<trkpt lat="46.5546800302132" lon="7.01395185780482"><ele></ele><time>2014-4-28T15:51:54Z</time></trkpt>
<trkpt lat="46.5547322808928" lon="7.01414805323698"><ele></ele><time>2014-4-28T15:51:57Z</time></trkpt>
<trkpt lat="46.5545946445195" lon="7.01455523862089"><ele></ele><time>2014-4-28T15:52:0Z</time></trkpt>
<trkpt lat="46.5545971047916" lon="7.01521580210354"><ele></ele><time>2014-4-28T15:52:3Z</time></trkpt>
<trkpt lat="46.554598409036" lon="7.01556639967163"><ele></ele><time>2014-4-28T15:52:6Z</time></trkpt>
<trkpt lat="46.554696394058" lon="7.01597640924503"><ele></ele><time>2014-4-28T15:52:9Z</time></trkpt>
<trkpt lat="46.5548143159247" lon="7.01646986487022"><ele></ele><time>2014-4-28T15:52:12Z</time></trkpt>
<trkpt lat="46.5549044688744" lon="7.01713650306899"><ele></ele><time>2014-4-28T15:52:15Z</time></trkpt>
<trkpt lat="46.554995875593" lon="7.01781240525295"><ele></ele><time>2014-4-28T15:52:18Z</time></trkpt>
<trkpt lat="46.5550720006247" lon="7.01817825505224"><ele></ele><time>2014-4-28T15:52:21Z</time></trkpt>
<trkpt lat="46.5552717176312" lon="7.01871981557122"><ele></ele><time>2014-4-28T15:52:24Z</time></trkpt>
<trkpt lat="46.5554190049395" lon="7.01896128686367"><ele></ele><time>2014-4-28T15:52:27Z</time></trkpt>
<trkpt lat="46.5555968460591" lon="7.01925288433099"><ele></ele><time>2014-4-28T15:52:30Z</time></trkpt>
<trkpt lat="46.5556854607937" lon="7.01955748447796"><ele></ele><time>2014-4-28T15:52:33Z</time></trkpt>
<trkpt lat="46.5557860310009" lon="7.01987701559628"><ele></ele><time>2014-4-28T15:52:36Z</time></trkpt>
<trkpt lat="46.5559006198612" lon="7.02001673037558"><ele></ele><time>2014-4-28T15:52:39Z</time></trkpt>
<trkpt lat="46.5560603073294" lon="7.02001549558514"><ele></ele><time>2014-4-28T15:52:42Z</time></trkpt>
<trkpt lat="46.5564976996969" lon="7.02004796172988"><ele></ele><time>2014-4-28T15:52:45Z</time></trkpt>
<trkpt lat="46.5567421888903" lon="7.02015652486815"><ele></ele><time>2014-4-28T15:52:48Z</time></trkpt>
<trkpt lat="46.5570292365496" lon="7.0202625953457"><ele></ele><time>2014-4-28T15:52:51Z</time></trkpt>
<trkpt lat="46.5572059031159" lon="7.02042644230645"><ele></ele><time>2014-4-28T15:52:54Z</time></trkpt>
<trkpt lat="46.5574517822599" lon="7.02049964441522"><ele></ele><time>2014-4-28T15:52:57Z</time></trkpt>
<trkpt lat="46.5577278796399" lon="7.02053413043499"><ele></ele><time>2014-4-28T15:53:0Z</time></trkpt>
<trkpt lat="46.5581289012841" lon="7.02055412865298"><ele></ele><time>2014-4-28T15:53:3Z</time></trkpt>
<trkpt lat="46.5586081195203" lon="7.02066631006539"><ele></ele><time>2014-4-28T15:53:6Z</time></trkpt>
<trkpt lat="46.5589049612243" lon="7.02071066610894"><ele></ele><time>2014-4-28T15:53:9Z</time></trkpt>
<trkpt lat="46.5592378994383" lon="7.0208104688767"><ele></ele><time>2014-4-28T15:53:12Z</time></trkpt>
<trkpt lat="46.559488716508" lon="7.02091540578324"><ele></ele><time>2014-4-28T15:53:15Z</time></trkpt>
<trkpt lat="46.5596406279572" lon="7.02104060335134"><ele></ele><time>2014-4-28T15:53:18Z</time></trkpt>
<trkpt lat="46.5598506758708" lon="7.02108415809564"><ele></ele><time>2014-4-28T15:53:21Z</time></trkpt>
<trkpt lat="46.5601168104415" lon="7.02124006239039"><ele></ele><time>2014-4-28T15:53:24Z</time></trkpt>
<trkpt lat="46.5603855686472" lon="7.02141725770194"><ele></ele><time>2014-4-28T15:53:27Z</time></trkpt>
<trkpt lat="46.5604925932835" lon="7.02146458190914"><ele></ele><time>2014-4-28T15:53:30Z</time></trkpt>
<trkpt lat="46.5607335301446" lon="7.0215394484006"><ele></ele><time>2014-4-28T15:53:33Z</time></trkpt>
<trkpt lat="46.5608694504243" lon="7.02172218268716"><ele></ele><time>2014-4-28T15:53:36Z</time></trkpt>
<trkpt lat="46.5610739780674" lon="7.02205159028656"><ele></ele><time>2014-4-28T15:53:39Z</time></trkpt>
<trkpt lat="46.5613057383057" lon="7.02233770132249"><ele></ele><time>2014-4-28T15:53:42Z</time></trkpt>
<trkpt lat="46.561549830235" lon="7.02261131735949"><ele></ele><time>2014-4-28T15:53:45Z</time></trkpt>
<trkpt lat="46.5616308764447" lon="7.02264680705172"><ele></ele><time>2014-4-28T15:53:48Z</time></trkpt>
<trkpt lat="46.5617801910821" lon="7.02263060939618"><ele></ele><time>2014-4-28T15:53:51Z</time></trkpt>
<trkpt lat="46.5620055952684" lon="7.02256870215304"><ele></ele><time>2014-4-28T15:53:54Z</time></trkpt>
<trkpt lat="46.562265464777" lon="7.02243130382908"><ele></ele><time>2014-4-28T15:53:57Z</time></trkpt>
<trkpt lat="46.5624930907107" lon="7.02226856388914"><ele></ele><time>2014-4-28T15:54:0Z</time></trkpt>
<trkpt lat="46.5626718177397" lon="7.02214078620077"><ele></ele><time>2014-4-28T15:54:3Z</time></trkpt>
<trkpt lat="46.5628649743386" lon="7.02196894495456"><ele></ele><time>2014-4-28T15:54:6Z</time></trkpt>
<trkpt lat="46.5629810164995" lon="7.02192893857909"><ele></ele><time>2014-4-28T15:54:9Z</time></trkpt>
<trkpt lat="46.5632638981126" lon="7.02196888696156"><ele></ele><time>2014-4-28T15:54:12Z</time></trkpt>
<trkpt lat="46.5635948051592" lon="7.02196633978069"><ele></ele><time>2014-4-28T15:54:15Z</time></trkpt>
<trkpt lat="46.5639244019387" lon="7.0219818401401"><ele></ele><time>2014-4-28T15:54:18Z</time></trkpt>
<trkpt lat="46.5642472155002" lon="7.0220365330419"><ele></ele><time>2014-4-28T15:54:21Z</time></trkpt>
<trkpt lat="46.5645676027299" lon="7.02212141243994"><ele></ele><time>2014-4-28T15:54:24Z</time></trkpt>
<trkpt lat="46.5649417064698" lon="7.02230058141883"><ele></ele><time>2014-4-28T15:54:27Z</time></trkpt>
<trkpt lat="46.5651853218691" lon="7.02239961814658"><ele></ele><time>2014-4-28T15:54:30Z</time></trkpt>
<trkpt lat="46.5654567710591" lon="7.02255309051327"><ele></ele><time>2014-4-28T15:54:33Z</time></trkpt>
<trkpt lat="46.5657082564165" lon="7.0227995167642"><ele></ele><time>2014-4-28T15:54:36Z</time></trkpt>
<trkpt lat="46.565848760352" lon="7.0229619934441"><ele></ele><time>2014-4-28T15:54:39Z</time></trkpt>
<trkpt lat="46.5661861455966" lon="7.02309281760044"><ele></ele><time>2014-4-28T15:54:42Z</time></trkpt>
<trkpt lat="46.5666103262373" lon="7.02316831430577"><ele></ele><time>2014-4-28T15:54:45Z</time></trkpt>
<trkpt lat="46.5669950378753" lon="7.02330166093736"><ele></ele><time>2014-4-28T15:54:48Z</time></trkpt>
<trkpt lat="46.5673287986234" lon="7.02344760865771"><ele></ele><time>2014-4-28T15:54:51Z</time></trkpt>
<trkpt lat="46.5676967832299" lon="7.02357502222438"><ele></ele><time>2014-4-28T15:54:54Z</time></trkpt>
<trkpt lat="46.5679023590549" lon="7.02370982594364"><ele></ele><time>2014-4-28T15:54:57Z</time></trkpt>
<trkpt lat="46.5680221487711" lon="7.02391790002284"><ele></ele><time>2014-4-28T15:55:0Z</time></trkpt>
<trkpt lat="46.5681087408049" lon="7.02406831702848"><ele></ele><time>2014-4-28T15:55:3Z</time></trkpt>
<trkpt lat="46.5682799691716" lon="7.02418549118244"><ele></ele><time>2014-4-28T15:55:6Z</time></trkpt>
<trkpt lat="46.568478912376" lon="7.02395913898845"><ele></ele><time>2014-4-28T15:55:9Z</time></trkpt>
<trkpt lat="46.5690141308077" lon="7.02381860321441"><ele></ele><time>2014-4-28T15:55:12Z</time></trkpt>
<trkpt lat="46.5697185852212" lon="7.02363361864141"><ele></ele><time>2014-4-28T15:55:15Z</time></trkpt>
<trkpt lat="46.5703616881754" lon="7.02350277528648"><ele></ele><time>2014-4-28T15:55:18Z</time></trkpt>
<trkpt lat="46.5708831352226" lon="7.0234711746111"><ele></ele><time>2014-4-28T15:55:21Z</time></trkpt>
<trkpt lat="46.5712764526699" lon="7.02346815750311"><ele></ele><time>2014-4-28T15:55:24Z</time></trkpt>
<trkpt lat="46.5716786299471" lon="7.0236449382576"><ele></ele><time>2014-4-28T15:55:27Z</time></trkpt>
<trkpt lat="46.571922105723" lon="7.02371837558517"><ele></ele><time>2014-4-28T15:55:30Z</time></trkpt>
<trkpt lat="46.5722998117005" lon="7.02378585393131"><ele></ele><time>2014-4-28T15:55:33Z</time></trkpt>
<trkpt lat="46.5725767761965" lon="7.02425381096407"><ele></ele><time>2014-4-28T15:55:36Z</time></trkpt>
<trkpt lat="46.5727547874202" lon="7.02455400877511"><ele></ele><time>2014-4-28T15:55:39Z</time></trkpt>
<trkpt lat="46.572825365107" lon="7.02457306151214"><ele></ele><time>2014-4-28T15:55:42Z</time></trkpt>
<trkpt lat="46.5729367554092" lon="7.02447318880094"><ele></ele><time>2014-4-28T15:55:45Z</time></trkpt>
<trkpt lat="46.5731282447538" lon="7.02432919913396"><ele></ele><time>2014-4-28T15:55:48Z</time></trkpt>
<trkpt lat="46.573260199832" lon="7.02426660571252"><ele></ele><time>2014-4-28T15:55:51Z</time></trkpt>
<trkpt lat="46.5734964928357" lon="7.02430935685716"><ele></ele><time>2014-4-28T15:55:54Z</time></trkpt>
<trkpt lat="46.5736889007731" lon="7.02442763362045"><ele></ele><time>2014-4-28T15:55:57Z</time></trkpt>
<trkpt lat="46.5738413140357" lon="7.02463255995541"><ele></ele><time>2014-4-28T15:56:0Z</time></trkpt>
<trkpt lat="46.5739438009802" lon="7.02483507761541"><ele></ele><time>2014-4-28T15:56:3Z</time></trkpt>
<trkpt lat="46.574140689962" lon="7.02502313846239"><ele></ele><time>2014-4-28T15:56:6Z</time></trkpt>
<trkpt lat="46.5744009406354" lon="7.02531914511063"><ele></ele><time>2014-4-28T15:56:9Z</time></trkpt>
<trkpt lat="46.5745553188383" lon="7.025537980494"><ele></ele><time>2014-4-28T15:56:12Z</time></trkpt>
<trkpt lat="46.5747028030837" lon="7.02579571738053"><ele></ele><time>2014-4-28T15:56:15Z</time></trkpt>
<trkpt lat="46.5748270564319" lon="7.02617909874644"><ele></ele><time>2014-4-28T15:56:18Z</time></trkpt>
<trkpt lat="46.5749445399691" lon="7.02654157019063"><ele></ele><time>2014-4-28T15:56:21Z</time></trkpt>
<trkpt lat="46.5750691637223" lon="7.02692608705729"><ele></ele><time>2014-4-28T15:56:24Z</time></trkpt>
<trkpt lat="46.57519775115" lon="7.02717313342453"><ele></ele><time>2014-4-28T15:56:27Z</time></trkpt>
<trkpt lat="46.5754101563251" lon="7.02751128992253"><ele></ele><time>2014-4-28T15:56:30Z</time></trkpt>
<trkpt lat="46.5755558593627" lon="7.02787493672078"><ele></ele><time>2014-4-28T15:56:33Z</time></trkpt>
<trkpt lat="46.5755987361737" lon="7.02805285948995"><ele></ele><time>2014-4-28T15:56:36Z</time></trkpt>
<trkpt lat="46.5755997705992" lon="7.02833971333552"><ele></ele><time>2014-4-28T15:56:39Z</time></trkpt>
<trkpt lat="46.5758331063989" lon="7.0285832844763"><ele></ele><time>2014-4-28T15:56:42Z</time></trkpt>
<trkpt lat="46.5760429554166" lon="7.02891973478826"><ele></ele><time>2014-4-28T15:56:45Z</time></trkpt>
<trkpt lat="46.5763240191532" lon="7.02946792163196"><ele></ele><time>2014-4-28T15:56:48Z</time></trkpt>
<trkpt lat="46.5764568543283" lon="7.02972702757959"><ele></ele><time>2014-4-28T15:56:51Z</time></trkpt>
<trkpt lat="46.5766674764221" lon="7.03003921598578"><ele></ele><time>2014-4-28T15:56:54Z</time></trkpt>
<trkpt lat="46.5768673989849" lon="7.03033558519509"><ele></ele><time>2014-4-28T15:56:57Z</time></trkpt>
<trkpt lat="46.5770147040745" lon="7.03055393717458"><ele></ele><time>2014-4-28T15:57:0Z</time></trkpt>
<trkpt lat="46.5771605737026" lon="7.03065300032079"><ele></ele><time>2014-4-28T15:57:3Z</time></trkpt>
<trkpt lat="46.5773912366699" lon="7.03074953329019"><ele></ele><time>2014-4-28T15:57:6Z</time></trkpt>
<trkpt lat="46.5775463753506" lon="7.0308144658358"><ele></ele><time>2014-4-28T15:57:9Z</time></trkpt>
<trkpt lat="46.5778372582998" lon="7.03100975851094"><ele></ele><time>2014-4-28T15:57:12Z</time></trkpt>
<trkpt lat="46.5779757201593" lon="7.03110270957364"><ele></ele><time>2014-4-28T15:57:15Z</time></trkpt>
<trkpt lat="46.5781311617124" lon="7.03110153896253"><ele></ele><time>2014-4-28T15:57:18Z</time></trkpt>
<trkpt lat="46.5783361951545" lon="7.03107736048628"><ele></ele><time>2014-4-28T15:57:21Z</time></trkpt>
<trkpt lat="46.5784726121649" lon="7.03113436073927"><ele></ele><time>2014-4-28T15:57:24Z</time></trkpt>
<trkpt lat="46.5785969727927" lon="7.03126868329486"><ele></ele><time>2014-4-28T15:57:27Z</time></trkpt>
<trkpt lat="46.5787472668357" lon="7.03147061060764"><ele></ele><time>2014-4-28T15:57:30Z</time></trkpt>
<trkpt lat="46.5789318657566" lon="7.03169144547487"><ele></ele><time>2014-4-28T15:57:33Z</time></trkpt>
<trkpt lat="46.5790772010819" lon="7.03186531153863"><ele></ele><time>2014-4-28T15:57:36Z</time></trkpt>
<trkpt lat="46.5791929582515" lon="7.03196614770822"><ele></ele><time>2014-4-28T15:57:39Z</time></trkpt>
<trkpt lat="46.579362267672" lon="7.03200932305861"><ele></ele><time>2014-4-28T15:57:42Z</time></trkpt>
<trkpt lat="46.5795923486736" lon="7.0321044480797"><ele></ele><time>2014-4-28T15:57:45Z</time></trkpt>
<trkpt lat="46.5797139813487" lon="7.0322233495571"><ele></ele><time>2014-4-28T15:57:48Z</time></trkpt>
<trkpt lat="46.579925312966" lon="7.03246910407484"><ele></ele><time>2014-4-28T15:57:51Z</time></trkpt>
<trkpt lat="46.5801342593859" lon="7.0327121126088"><ele></ele><time>2014-4-28T15:57:54Z</time></trkpt>
<trkpt lat="46.5803421844735" lon="7.03295391737244"><ele></ele><time>2014-4-28T15:57:57Z</time></trkpt>
<trkpt lat="46.5805492115914" lon="7.03314328464694"><ele></ele><time>2014-4-28T15:58:0Z</time></trkpt>
<trkpt lat="46.5807589002919" lon="7.03330210500435"><ele></ele><time>2014-4-28T15:58:3Z</time></trkpt>
<trkpt lat="46.5810146358665" lon="7.03350336094622"><ele></ele><time>2014-4-28T15:58:6Z</time></trkpt>
<trkpt lat="46.5811706714301" lon="7.03362614690592"><ele></ele><time>2014-4-28T15:58:9Z</time></trkpt>
<trkpt lat="46.5812645706079" lon="7.03374304487758"><ele></ele><time>2014-4-28T15:58:12Z</time></trkpt>
<trkpt lat="46.5813892626632" lon="7.03397400015002"><ele></ele><time>2014-4-28T15:58:15Z</time></trkpt>
<trkpt lat="46.5815292856934" lon="7.0342766369093"><ele></ele><time>2014-4-28T15:58:18Z</time></trkpt>
<trkpt lat="46.581700897971" lon="7.03446698241817"><ele></ele><time>2014-4-28T15:58:21Z</time></trkpt>
<trkpt lat="46.5818663153482" lon="7.03453918620617"><ele></ele><time>2014-4-28T15:58:24Z</time></trkpt>
<trkpt lat="46.5820078969262" lon="7.03465021254577"><ele></ele><time>2014-4-28T15:58:27Z</time></trkpt>
<trkpt lat="46.5822098333018" lon="7.0348786657906"><ele></ele><time>2014-4-28T15:58:30Z</time></trkpt>
<trkpt lat="46.5823394257459" lon="7.03498785224129"><ele></ele><time>2014-4-28T15:58:33Z</time></trkpt>
<trkpt lat="46.5825508508981" lon="7.03509674205464"><ele></ele><time>2014-4-28T15:58:36Z</time></trkpt>
<trkpt lat="46.5827721832145" lon="7.03516079521114"><ele></ele><time>2014-4-28T15:58:39Z</time></trkpt>
<trkpt lat="46.5828515886953" lon="7.03518376571378"><ele></ele><time>2014-4-28T15:58:42Z</time></trkpt>
<trkpt lat="46.5831073566167" lon="7.0351818586691"><ele></ele><time>2014-4-28T15:58:45Z</time></trkpt>
<trkpt lat="46.5833375914885" lon="7.03512573617592"><ele></ele><time>2014-4-28T15:58:48Z</time></trkpt>
<trkpt lat="46.5836464712345" lon="7.0350886493804"><ele></ele><time>2014-4-28T15:58:51Z</time></trkpt>
<trkpt lat="46.5838562445016" lon="7.03511983306455"><ele></ele><time>2014-4-28T15:58:54Z</time></trkpt>
<trkpt lat="46.5840710639938" lon="7.03522452605541"><ele></ele><time>2014-4-28T15:58:57Z</time></trkpt>
<trkpt lat="46.5842359141708" lon="7.03533736844466"><ele></ele><time>2014-4-28T15:59:0Z</time></trkpt>
<trkpt lat="46.5844253950343" lon="7.03543259690239"><ele></ele><time>2014-4-28T15:59:3Z</time></trkpt>
<trkpt lat="46.5846214275917" lon="7.03550070413848"><ele></ele><time>2014-4-28T15:59:6Z</time></trkpt>
<trkpt lat="46.5848188580083" lon="7.03546058703216"><ele></ele><time>2014-4-28T15:59:9Z</time></trkpt>
<trkpt lat="46.5850343103554" lon="7.03536814586828"><ele></ele><time>2014-4-28T15:59:12Z</time></trkpt>
<trkpt lat="46.5853553952012" lon="7.03525175728935"><ele></ele><time>2014-4-28T15:59:15Z</time></trkpt>
<trkpt lat="46.5856105273127" lon="7.0351592924831"><ele></ele><time>2014-4-28T15:59:18Z</time></trkpt>
<trkpt lat="46.5858960886197" lon="7.03505578340276"><ele></ele><time>2014-4-28T15:59:21Z</time></trkpt>
<trkpt lat="46.586147656689" lon="7.03499838928436"><ele></ele><time>2014-4-28T15:59:24Z</time></trkpt>
<trkpt lat="46.586343150276" lon="7.0349118861042"><ele></ele><time>2014-4-28T15:59:27Z</time></trkpt>
<trkpt lat="46.5864497944587" lon="7.03481049253538"><ele></ele><time>2014-4-28T15:59:30Z</time></trkpt>
<trkpt lat="46.5865568973417" lon="7.03458742502331"><ele></ele><time>2014-4-28T15:59:33Z</time></trkpt>
<trkpt lat="46.5866651231482" lon="7.0343083211521"><ele></ele><time>2014-4-28T15:59:36Z</time></trkpt>
<trkpt lat="46.5867026148904" lon="7.03424941735479"><ele></ele><time>2014-4-28T15:59:39Z</time></trkpt>
<trkpt lat="46.586810161405" lon="7.03433129743709"><ele></ele><time>2014-4-28T15:59:42Z</time></trkpt>
<trkpt lat="46.5869564692237" lon="7.0344736781032"><ele></ele><time>2014-4-28T15:59:45Z</time></trkpt>
<trkpt lat="46.5872131523679" lon="7.03454715143961"><ele></ele><time>2014-4-28T15:59:48Z</time></trkpt>
<trkpt lat="46.58746437751" lon="7.03454527515732"><ele></ele><time>2014-4-28T15:59:51Z</time></trkpt>
<trkpt lat="46.5876809521463" lon="7.03454365764926"><ele></ele><time>2014-4-28T15:59:54Z</time></trkpt>
<trkpt lat="46.5877777353533" lon="7.03474857173669"><ele></ele><time>2014-4-28T15:59:57Z</time></trkpt>
<trkpt lat="46.5878289274248" lon="7.03485693196489"><ele></ele><time>2014-4-28T16:0:0Z</time></trkpt>
<trkpt lat="46.5881209832882" lon="7.03500451859897"><ele></ele><time>2014-4-28T16:0:3Z</time></trkpt>
<trkpt lat="46.5881740106473" lon="7.03518152529274"><ele></ele><time>2014-4-28T16:0:6Z</time></trkpt>
<trkpt lat="46.5883216622204" lon="7.03527185271636"><ele></ele><time>2014-4-28T16:0:9Z</time></trkpt>
<trkpt lat="46.5885678230955" lon="7.03523960211911"><ele></ele><time>2014-4-28T16:0:12Z</time></trkpt>
<trkpt lat="46.5887456548035" lon="7.0351495741418"><ele></ele><time>2014-4-28T16:0:15Z</time></trkpt>
<trkpt lat="46.5889550696359" lon="7.03495785935972"><ele></ele><time>2014-4-28T16:0:18Z</time></trkpt>
<trkpt lat="46.5891905619603" lon="7.03487246226511"><ele></ele><time>2014-4-28T16:0:21Z</time></trkpt>
<trkpt lat="46.5894127857268" lon="7.03487080385605"><ele></ele><time>2014-4-28T16:0:24Z</time></trkpt>
<trkpt lat="46.5895474928929" lon="7.03493073484271"><ele></ele><time>2014-4-28T16:0:27Z</time></trkpt>
<trkpt lat="46.5895879631345" lon="7.03501660492478"><ele></ele><time>2014-4-28T16:0:30Z</time></trkpt>
<trkpt lat="46.5895482385989" lon="7.0351410834213"><ele></ele><time>2014-4-28T16:0:33Z</time></trkpt>
<trkpt lat="46.5894511673449" lon="7.03534962972901"><ele></ele><time>2014-4-28T16:0:36Z</time></trkpt>
<trkpt lat="46.5893768451452" lon="7.03557068886024"><ele></ele><time>2014-4-28T16:0:39Z</time></trkpt>
<trkpt lat="46.5893582956922" lon="7.0357230758836"><ele></ele><time>2014-4-28T16:0:42Z</time></trkpt>
<trkpt lat="46.5894199489215" lon="7.03586960723753"><ele></ele><time>2014-4-28T16:0:45Z</time></trkpt>
<trkpt lat="46.5895442740711" lon="7.03595992954826"><ele></ele><time>2014-4-28T16:0:48Z</time></trkpt>
<trkpt lat="46.5896773527197" lon="7.03598433143297"><ele></ele><time>2014-4-28T16:0:51Z</time></trkpt>
<trkpt lat="46.5898291067792" lon="7.03592744570019"><ele></ele><time>2014-4-28T16:0:54Z</time></trkpt>
<trkpt lat="46.5899597848322" lon="7.03583776894885"><ele></ele><time>2014-4-28T16:0:57Z</time></trkpt>
<trkpt lat="46.5900683242483" lon="7.03580397405918"><ele></ele><time>2014-4-28T16:1:0Z</time></trkpt>
<trkpt lat="46.5902755546481" lon="7.0357394583983"><ele></ele><time>2014-4-28T16:1:3Z</time></trkpt>
<trkpt lat="46.5905563489721" lon="7.03539466939731"><ele></ele><time>2014-4-28T16:1:6Z</time></trkpt>
<trkpt lat="46.5908587066558" lon="7.03495648248349"><ele></ele><time>2014-4-28T16:1:9Z</time></trkpt>
<trkpt lat="46.5909865285428" lon="7.03518800620006"><ele></ele><time>2014-4-28T16:1:12Z</time></trkpt>
<trkpt lat="46.5910416810707" lon="7.03537842078786"><ele></ele><time>2014-4-28T16:1:15Z</time></trkpt>
<trkpt lat="46.5911566506732" lon="7.03548387276178"><ele></ele><time>2014-4-28T16:1:18Z</time></trkpt>
<trkpt lat="46.5912963137039" lon="7.0356682043624"><ele></ele><time>2014-4-28T16:1:21Z</time></trkpt>
<trkpt lat="46.5913381018457" lon="7.03579873429069"><ele></ele><time>2014-4-28T16:1:24Z</time></trkpt>
<trkpt lat="46.5913805061418" lon="7.03610099635469"><ele></ele><time>2014-4-28T16:1:27Z</time></trkpt>
<trkpt lat="46.5914236111362" lon="7.03650507429158"><ele></ele><time>2014-4-28T16:1:30Z</time></trkpt>
<trkpt lat="46.5914573363654" lon="7.0368211162439"><ele></ele><time>2014-4-28T16:1:33Z</time></trkpt>
<trkpt lat="46.5914580209502" lon="7.03701513546223"><ele></ele><time>2014-4-28T16:1:36Z</time></trkpt>
<trkpt lat="46.5913997544771" lon="7.03720860037605"><ele></ele><time>2014-4-28T16:1:39Z</time></trkpt>
<trkpt lat="46.5913517604087" lon="7.03741728198422"><ele></ele><time>2014-4-28T16:1:42Z</time></trkpt>
<trkpt lat="46.5913906396729" lon="7.03756277593529"><ele></ele><time>2014-4-28T16:1:45Z</time></trkpt>
<trkpt lat="46.5914432183153" lon="7.0375317995069"><ele></ele><time>2014-4-28T16:1:48Z</time></trkpt>
<trkpt lat="46.5914921756235" lon="7.03759642017145"><ele></ele><time>2014-4-28T16:1:51Z</time></trkpt>
<trkpt lat="46.5915303685501" lon="7.03792520499386"><ele></ele><time>2014-4-28T16:1:54Z</time></trkpt>
<trkpt lat="46.5915935438264" lon="7.03828788923541"><ele></ele><time>2014-4-28T16:1:57Z</time></trkpt>
<trkpt lat="46.5916800538315" lon="7.03854334807712"><ele></ele><time>2014-4-28T16:2:0Z</time></trkpt>
<trkpt lat="46.5917019673621" lon="7.03874051256702"><ele></ele><time>2014-4-28T16:2:3Z</time></trkpt>
<trkpt lat="46.5917259803594" lon="7.03895670016077"><ele></ele><time>2014-4-28T16:2:6Z</time></trkpt>
<trkpt lat="46.5917929801083" lon="7.03909761712961"><ele></ele><time>2014-4-28T16:2:9Z</time></trkpt>
<trkpt lat="46.5919488305487" lon="7.03922070598753"><ele></ele><time>2014-4-28T16:2:12Z</time></trkpt>
<trkpt lat="46.5921177764332" lon="7.03932266379984"><ele></ele><time>2014-4-28T16:2:15Z</time></trkpt>
<trkpt lat="46.5922691910106" lon="7.03961234558217"><ele></ele><time>2014-4-28T16:2:18Z</time></trkpt>
<trkpt lat="46.5923577110503" lon="7.03969005271349"><ele></ele><time>2014-4-28T16:2:21Z</time></trkpt>
<trkpt lat="46.5925634575707" lon="7.03976881404775"><ele></ele><time>2014-4-28T16:2:24Z</time></trkpt>
<trkpt lat="46.5927141852016" lon="7.03980614575847"><ele></ele><time>2014-4-28T16:2:27Z</time></trkpt>
<trkpt lat="46.592907067862" lon="7.03997483398016"><ele></ele><time>2014-4-28T16:2:30Z</time></trkpt>
<trkpt lat="46.5930499152056" lon="7.0401457971531"><ele></ele><time>2014-4-28T16:2:33Z</time></trkpt>
<trkpt lat="46.5931587522564" lon="7.04030209625925"><ele></ele><time>2014-4-28T16:2:36Z</time></trkpt>
<trkpt lat="46.5932200719922" lon="7.04051188261965"><ele></ele><time>2014-4-28T16:2:39Z</time></trkpt>
<trkpt lat="46.5932809998392" lon="7.04072032825214"><ele></ele><time>2014-4-28T16:2:42Z</time></trkpt>
<trkpt lat="46.5933955790786" lon="7.04090087185005"><ele></ele><time>2014-4-28T16:2:45Z</time></trkpt>
<trkpt lat="46.5934842050128" lon="7.04100915666556"><ele></ele><time>2014-4-28T16:2:48Z</time></trkpt>
<trkpt lat="46.5936174768293" lon="7.04107890504487"><ele></ele><time>2014-4-28T16:2:51Z</time></trkpt>
<trkpt lat="46.5936986183558" lon="7.04121043445461"><ele></ele><time>2014-4-28T16:2:54Z</time></trkpt>
<trkpt lat="46.5939694567518" lon="7.04106762747392"><ele></ele><time>2014-4-28T16:2:57Z</time></trkpt>
<trkpt lat="46.5942937218975" lon="7.04076819654178"><ele></ele><time>2014-4-28T16:3:0Z</time></trkpt>
<trkpt lat="46.5945448147171" lon="7.04057921781545"><ele></ele><time>2014-4-28T16:3:3Z</time></trkpt>
<trkpt lat="46.5947957828838" lon="7.04048586657051"><ele></ele><time>2014-4-28T16:3:6Z</time></trkpt>
<trkpt lat="46.5949796721501" lon="7.04040338282129"><ele></ele><time>2014-4-28T16:3:9Z</time></trkpt>
<trkpt lat="46.5951865973862" lon="7.04025863790086"><ele></ele><time>2014-4-28T16:3:12Z</time></trkpt>
<trkpt lat="46.5954185866507" lon="7.04010938772573"><ele></ele><time>2014-4-28T16:3:15Z</time></trkpt>
<trkpt lat="46.5956504135722" lon="7.04002944560512"><ele></ele><time>2014-4-28T16:3:18Z</time></trkpt>
<trkpt lat="46.5958198496411" lon="7.03997099915014"><ele></ele><time>2014-4-28T16:3:21Z</time></trkpt>
<trkpt lat="46.5960472049358" lon="7.0399216910962"><ele></ele><time>2014-4-28T16:3:24Z</time></trkpt>
<trkpt lat="46.5963509275192" lon="7.0399194525344"><ele></ele><time>2014-4-28T16:3:27Z</time></trkpt>
<trkpt lat="46.5965952692911" lon="7.03994539623602"><ele></ele><time>2014-4-28T16:3:30Z</time></trkpt>
<trkpt lat="46.5967628618808" lon="7.04005157719599"><ele></ele><time>2014-4-28T16:3:33Z</time></trkpt>
<trkpt lat="46.5968958364989" lon="7.04008251827283"><ele></ele><time>2014-4-28T16:3:36Z</time></trkpt>
<trkpt lat="46.5971077767241" lon="7.04006504850882"><ele></ele><time>2014-4-28T16:3:39Z</time></trkpt>
<trkpt lat="46.5973415747607" lon="7.03995459055194"><ele></ele><time>2014-4-28T16:3:42Z</time></trkpt>
<trkpt lat="46.5977973590808" lon="7.0397721663196"><ele></ele><time>2014-4-28T16:3:45Z</time></trkpt>
<trkpt lat="46.5982553354153" lon="7.03941448003338"><ele></ele><time>2014-4-28T16:3:48Z</time></trkpt>
<trkpt lat="46.5986430486282" lon="7.03884502489443"><ele></ele><time>2014-4-28T16:3:51Z</time></trkpt>
<trkpt lat="46.59894914868" lon="7.03839542308625"><ele></ele><time>2014-4-28T16:3:54Z</time></trkpt>
<trkpt lat="46.5991358299443" lon="7.03823500520545"><ele></ele><time>2014-4-28T16:3:57Z</time></trkpt>
<trkpt lat="46.5994451949917" lon="7.03761478410445"><ele></ele><time>2014-4-28T16:4:0Z</time></trkpt>
<trkpt lat="46.5999668225031" lon="7.03681963688843"><ele></ele><time>2014-4-28T16:4:3Z</time></trkpt>
<trkpt lat="46.600572596191" lon="7.03632907438189"><ele></ele><time>2014-4-28T16:4:6Z</time></trkpt>
<trkpt lat="46.6010263612425" lon="7.03616744038282"><ele></ele><time>2014-4-28T16:4:9Z</time></trkpt>
<trkpt lat="46.6019254992093" lon="7.03584715025779"><ele></ele><time>2014-4-28T16:4:12Z</time></trkpt>
<trkpt lat="46.602707860909" lon="7.03545759335262"><ele></ele><time>2014-4-28T16:4:15Z</time></trkpt>
<trkpt lat="46.6032737440035" lon="7.03498539118691"><ele></ele><time>2014-4-28T16:4:18Z</time></trkpt>
<trkpt lat="46.6038969715266" lon="7.03429492723333"><ele></ele><time>2014-4-28T16:4:21Z</time></trkpt>
<trkpt lat="46.6042440689391" lon="7.03365411573321"><ele></ele><time>2014-4-28T16:4:24Z</time></trkpt>
<trkpt lat="46.604482111798" lon="7.03342623258574"><ele></ele><time>2014-4-28T16:4:27Z</time></trkpt>
<trkpt lat="46.6047470449111" lon="7.03346194232472"><ele></ele><time>2014-4-28T16:4:30Z</time></trkpt>
<trkpt lat="46.6051870874862" lon="7.03309311824685"><ele></ele><time>2014-4-28T16:4:33Z</time></trkpt>
<trkpt lat="46.6058219330644" lon="7.03256100275297"><ele></ele><time>2014-4-28T16:4:36Z</time></trkpt>
<trkpt lat="46.6066739744188" lon="7.03183419411967"><ele></ele><time>2014-4-28T16:4:39Z</time></trkpt>
<trkpt lat="46.6069616271736" lon="7.03154151752916"><ele></ele><time>2014-4-28T16:4:42Z</time></trkpt>
<trkpt lat="46.6072897513332" lon="7.03109813932201"><ele></ele><time>2014-4-28T16:4:45Z</time></trkpt>
<trkpt lat="46.6074934351905" lon="7.03109660454225"><ele></ele><time>2014-4-28T16:4:48Z</time></trkpt>
<trkpt lat="46.6077099426915" lon="7.03138056926233"><ele></ele><time>2014-4-28T16:4:51Z</time></trkpt>
<trkpt lat="46.6080268114054" lon="7.0318172964078"><ele></ele><time>2014-4-28T16:4:54Z</time></trkpt>
<trkpt lat="46.6086152651511" lon="7.03244257569163"><ele></ele><time>2014-4-28T16:4:57Z</time></trkpt>
<trkpt lat="46.6089028673099" lon="7.03274818229494"><ele></ele><time>2014-4-28T16:5:0Z</time></trkpt>
<trkpt lat="46.609196375754" lon="7.03215718897029"><ele></ele><time>2014-4-28T16:5:3Z</time></trkpt>
<trkpt lat="46.6099714356299" lon="7.03086640148896"><ele></ele><time>2014-4-28T16:5:6Z</time></trkpt>
<trkpt lat="46.6102776528956" lon="7.03040801782699"><ele></ele><time>2014-4-28T16:5:9Z</time></trkpt>
<trkpt lat="46.6113326679774" lon="7.02947825296283"><ele></ele><time>2014-4-28T16:5:12Z</time></trkpt>
<trkpt lat="46.6122753249225" lon="7.028647469427"><ele></ele><time>2014-4-28T16:5:15Z</time></trkpt>
<trkpt lat="46.6124919002902" lon="7.02854119975847"><ele></ele><time>2014-4-28T16:5:18Z</time></trkpt>
<trkpt lat="46.6135137538902" lon="7.02834073100197"><ele></ele><time>2014-4-28T16:5:21Z</time></trkpt>
<trkpt lat="46.6139757703993" lon="7.0281080303644"><ele></ele><time>2014-4-28T16:5:24Z</time></trkpt>
<trkpt lat="46.6146648014888" lon="7.02751876644923"><ele></ele><time>2014-4-28T16:5:27Z</time></trkpt>
<trkpt lat="46.6152237732591" lon="7.02731137340843"><ele></ele><time>2014-4-28T16:5:30Z</time></trkpt>
<trkpt lat="46.6159516357239" lon="7.02717040620891"><ele></ele><time>2014-4-28T16:5:33Z</time></trkpt>
<trkpt lat="46.6163468847342" lon="7.0273288751697"><ele></ele><time>2014-4-28T16:5:36Z</time></trkpt>
<trkpt lat="46.6165628112113" lon="7.02732723281242"><ele></ele><time>2014-4-28T16:5:39Z</time></trkpt>
<trkpt lat="46.6164594695185" lon="7.02653102684548"><ele></ele><time>2014-4-28T16:5:42Z</time></trkpt>
<trkpt lat="46.6164246406227" lon="7.02611170624528"><ele></ele><time>2014-4-28T16:5:45Z</time></trkpt>
<trkpt lat="46.6165158502943" lon="7.02559605713908"><ele></ele><time>2014-4-28T16:5:48Z</time></trkpt>
<trkpt lat="46.6166945389332" lon="7.02492634084627"><ele></ele><time>2014-4-28T16:5:51Z</time></trkpt>
<trkpt lat="46.6167530049977" lon="7.02439998477608"><ele></ele><time>2014-4-28T16:5:54Z</time></trkpt>
<trkpt lat="46.6164120762264" lon="7.02402135276422"><ele></ele><time>2014-4-28T16:5:57Z</time></trkpt>
<trkpt lat="46.6160260201973" lon="7.02333568223727"><ele></ele><time>2014-4-28T16:6:0Z</time></trkpt>
<trkpt lat="46.6158989168249" lon="7.02255832977129"><ele></ele><time>2014-4-28T16:6:3Z</time></trkpt>
<trkpt lat="46.6158492551428" lon="7.02159997949189"><ele></ele><time>2014-4-28T16:6:6Z</time></trkpt>
<trkpt lat="46.6156484273694" lon="7.02105516024022"><ele></ele><time>2014-4-28T16:6:9Z</time></trkpt>
<trkpt lat="46.6154086991382" lon="7.02055187256166"><ele></ele><time>2014-4-28T16:6:12Z</time></trkpt>
<trkpt lat="46.6152794255635" lon="7.02015598372891"><ele></ele><time>2014-4-28T16:6:15Z</time></trkpt>
<trkpt lat="46.6150971629601" lon="7.01983266018107"><ele></ele><time>2014-4-28T16:6:18Z</time></trkpt>
<trkpt lat="46.6150947731941" lon="7.01918322376315"><ele></ele><time>2014-4-28T16:6:21Z</time></trkpt>
<trkpt lat="46.6151901848641" lon="7.01815456004287"><ele></ele><time>2014-4-28T16:6:24Z</time></trkpt>
<trkpt lat="46.6150988941885" lon="7.0174697318171"><ele></ele><time>2014-4-28T16:6:27Z</time></trkpt>
<trkpt lat="46.6147495147944" lon="7.01713772109006"><ele></ele><time>2014-4-28T16:6:30Z</time></trkpt>
<trkpt lat="46.6143488121297" lon="7.01685136172803"><ele></ele><time>2014-4-28T16:6:33Z</time></trkpt>
<trkpt lat="46.613898583543" lon="7.01671205872565"><ele></ele><time>2014-4-28T16:6:36Z</time></trkpt>
<trkpt lat="46.613399451235" lon="7.01664965053187"><ele></ele><time>2014-4-28T16:6:39Z</time></trkpt>
<trkpt lat="46.6131669711569" lon="7.01648824830993"><ele></ele><time>2014-4-28T16:6:42Z</time></trkpt>
<trkpt lat="46.6130322974853" lon="7.01617307615045"><ele></ele><time>2014-4-28T16:6:45Z</time></trkpt>
<trkpt lat="46.6128923336001" lon="7.0156326200153"><ele></ele><time>2014-4-28T16:6:48Z</time></trkpt>
<trkpt lat="46.6127185681549" lon="7.01520045375738"><ele></ele><time>2014-4-28T16:6:51Z</time></trkpt>
<trkpt lat="46.6124861049953" lon="7.01504416376583"><ele></ele><time>2014-4-28T16:6:54Z</time></trkpt>
<trkpt lat="46.6121836818532" lon="7.01497002343188"><ele></ele><time>2014-4-28T16:6:57Z</time></trkpt>
<trkpt lat="46.6119706545842" lon="7.01467502974541"><ele></ele><time>2014-4-28T16:7:0Z</time></trkpt>
<trkpt lat="46.6115634891795" lon="7.01383668331584"><ele></ele><time>2014-4-28T16:7:3Z</time></trkpt>
<trkpt lat="46.6112683118854" lon="7.01322892349293"><ele></ele><time>2014-4-28T16:7:6Z</time></trkpt>
<trkpt lat="46.6111230205261" lon="7.01254979994557"><ele></ele><time>2014-4-28T16:7:9Z</time></trkpt>
<trkpt lat="46.6110498509042" lon="7.01186062087835"><ele></ele><time>2014-4-28T16:7:12Z</time></trkpt>
<trkpt lat="46.6106517747299" lon="7.0109904524471"><ele></ele><time>2014-4-28T16:7:15Z</time></trkpt>
<trkpt lat="46.6100382896219" lon="7.0096494827654"><ele></ele><time>2014-4-28T16:7:18Z</time></trkpt>
<trkpt lat="46.6093619759708" lon="7.00839300185695"><ele></ele><time>2014-4-28T16:7:21Z</time></trkpt>
<trkpt lat="46.608978595036" lon="7.00763348572231"><ele></ele><time>2014-4-28T16:7:24Z</time></trkpt>
<trkpt lat="46.6087217337918" lon="7.00686217536379"><ele></ele><time>2014-4-28T16:7:27Z</time></trkpt>
<trkpt lat="46.6084709543865" lon="7.00575861057738"><ele></ele><time>2014-4-28T16:7:30Z</time></trkpt>
<trkpt lat="46.6083514415873" lon="7.00477625720147"><ele></ele><time>2014-4-28T16:7:33Z</time></trkpt>
<trkpt lat="46.6083262074417" lon="7.00432280218673"><ele></ele><time>2014-4-28T16:7:36Z</time></trkpt>
<trkpt lat="46.6087581292292" lon="7.00422900611661"><ele></ele><time>2014-4-28T16:7:39Z</time></trkpt>
<trkpt lat="46.6090262837647" lon="7.00413746406668"><ele></ele><time>2014-4-28T16:7:42Z</time></trkpt>
<trkpt lat="46.609814086078" lon="7.00389797555048"><ele></ele><time>2014-4-28T16:7:45Z</time></trkpt>
<trkpt lat="46.6100868033905" lon="7.00154861837269"><ele></ele><time>2014-4-28T16:7:48Z</time></trkpt>
</trkseg></trk></gpx>